Wetterdaten: Donnerstag, 05.09.2019
Datum Zeit Temp. Aussen Temp. o. S. +5cm Feuchte Auss Luftdruck Regen Sonnenschein Regendauer Solar Windben Empfang
05.09.2019 00:00 14,6 C 12,8 C 12,8 C 95 % 1015,2 hPa 0,0 l/m 0 min 0 min 0 W/m 0,0 km/h (0 Bft) 100,00 %
05.09.2019 00:02 14,5 C 12,8 C 12,8 C 95 % 1015,2 hPa 0,0 l/m 0 min 0 min 0 W/m 0,0 km/h (0 Bft) 97,22 %
05.09.2019 00:04 14,5 C 12,8 C 12,8 C 95 % 1015,2 hPa 0,0 l/m 0 min 0 min 0 W/m 0,0 km/h (0 Bft) 100,00 %
05.09.2019 00:08 14,4 C 12,8 C 12,8 C 95 % 1015,2 hPa 0,0 l/m 0 min 0 min 0 W/m 0,0 km/h (0 Bft) 100,00 %
05.09.2019 00:10 14,4 C 12,8 C 12,8 C 95 % 1015,1 hPa 0,0 l/m 0 min 0 min 0 W/m 0,0 km/h (0 Bft) 100,00 %
05.09.2019 00:12 14,4 C 12,8 C 12,8 C 95 % 1015,1 hPa 0,0 l/m 0 min 0 min 0 W/m 0,0 km/h (0 Bft) 100,00 %
05.09.2019 00:14 14,4 C 12,8 C 12,8 C 95 % 1015,1 hPa 0,0 l/m 0 min 0 min 0 W/m 0,0 km/h (0 Bft) 100,00 %
05.09.2019 00:16 14,4 C 12,8 C 12,8 C 95 % 1015,1 hPa 0,0 l/m 0 min 0 min 0 W/m 0,0 km/h (0 Bft) 100,00 %
05.09.2019 00:18 14,3 C 12,8 C 12,8 C 95 % 1015,1 hPa 0,0 l/m 0 min 0 min 0 W/m 0,0 km/h (0 Bft) 100,00 %
05.09.2019 00:20 14,3 C 12,8 C 12,2 C 95 % 1015,1 hPa 0,0 l/m 0 min 0 min 0 W/m 0,0 km/h (0 Bft) 97,87 %
05.09.2019 00:22 14,3 C 12,8 C 12,2 C 95 % 1015,1 hPa 0,0 l/m 0 min 0 min 0 W/m 0,0 km/h (0 Bft) 100,00 %
05.09.2019 00:24 14,3 C 12,8 C 12,2 C 95 % 1015,1 hPa 0,0 l/m 0 min 0 min 0 W/m 0,0 km/h (0 Bft) 100,00 %
05.09.2019 00:26 14,2 C 12,8 C 12,2 C 95 % 1015,1 hPa 0,0 l/m 0 min 0 min 0 W/m 0,0 km/h (0 Bft) 100,00 %
05.09.2019 00:28 14,2 C 12,8 C 12,2 C 95 % 1015,1 hPa 0,0 l/m 0 min 0 min 0 W/m 0,0 km/h (0 Bft) 100,00 %
05.09.2019 00:30 14,2 C 12,8 C 12,2 C 95 % 1015,1 hPa 0,0 l/m 0 min 0 min 0 W/m 0,0 km/h (0 Bft) 100,00 %
05.09.2019 00:32 14,2 C 12,8 C 12,2 C 95 % 1015,1 hPa 0,0 l/m 0 min 0 min 0 W/m 0,0 km/h (0 Bft) 97,87 %
05.09.2019 00:34 14,2 C 12,8 C 12,2 C 95 % 1015,1 hPa 0,0 l/m 0 min 0 min 0 W/m 0,0 km/h (0 Bft) 100,00 %
05.09.2019 00:36 14,2 C 12,8 C 12,2 C 95 % 1015,1 hPa 0,0 l/m 0 min 0 min 0 W/m 0,0 km/h (0 Bft) 100,00 %
05.09.2019 00:38 14,2 C 12,8 C 12,2 C 95 % 1015,2 hPa 0,0 l/m 0 min 0 min 0 W/m 0,0 km/h (0 Bft) 100,00 %
05.09.2019 00:40 14,2 C 12,8 C 12,2 C 95 % 1015,1 hPa 0,0 l/m 0 min 0 min 0 W/m 0,0 km/h (0 Bft) 100,00 %
05.09.2019 00:42 14,2 C 12,8 C 12,8 C 95 % 1015,1 hPa 0,0 l/m 0 min 0 min 0 W/m 0,0 km/h (0 Bft) 97,87 %
05.09.2019 00:44 14,2 C 12,8 C 12,8 C 96 % 1015,2 hPa 0,0 l/m 0 min 0 min 0 W/m 3,2 km/h (1 Bft) 100,00 %
05.09.2019 00:46 14,2 C 12,8 C 12,8 C 96 % 1015,2 hPa 0,0 l/m 0 min 0 min 0 W/m 3,2 km/h (1 Bft) 100,00 %
05.09.2019 00:48 14,2 C 12,8 C 12,8 C 96 % 1015,2 hPa 0,0 l/m 0 min 0 min 0 W/m 3,2 km/h (1 Bft) 100,00 %
05.09.2019 00:50 14,2 C 12,8 C 12,8 C 96 % 1015,2 hPa 0,0 l/m 0 min 0 min 0 W/m 0,0 km/h (0 Bft) 97,87 %
05.09.2019 00:52 14,1 C 12,8 C 12,2 C 95 % 1015,2 hPa 0,0 l/m 0 min 0 min 0 W/m 0,0 km/h (0 Bft) 97,87 %
05.09.2019 00:54 14,1 C 12,2 C 12,2 C 95 % 1015,2 hPa 0,0 l/m 0 min 0 min 0 W/m 0,0 km/h (0 Bft) 100,00 %
05.09.2019 00:56 14,1 C 12,2 C 12,2 C 95 % 1015,1 hPa 0,0 l/m 0 min 0 min 0 W/m 0,0 km/h (0 Bft) 100,00 %
05.09.2019 00:58 14,1 C 12,2 C 12,2 C 95 % 1015,1 hPa 0,0 l/m 0 min 0 min 0 W/m 3,2 km/h (1 Bft) 100,00 %
05.09.2019 01:00 14,0 C 12,2 C 12,2 C 95 % 1015,1 hPa 0,0 l/m 0 min 0 min 0 W/m 0,0 km/h (0 Bft) 100,00 %
05.09.2019 01:02 14,0 C 12,2 C 12,2 C 95 % 1015,1 hPa 0,0 l/m 0 min 0 min 0 W/m 3,2 km/h (1 Bft) 95,74 %
05.09.2019 01:04 13,9 C 12,8 C 12,2 C 95 % 1015,1 hPa 0,0 l/m 0 min 0 min 0 W/m 9,7 km/h (2 Bft) 97,87 %
05.09.2019 01:06 13,9 C 12,8 C 12,2 C 96 % 1015,1 hPa 0,0 l/m 0 min 0 min 0 W/m 6,4 km/h (2 Bft) 97,87 %
05.09.2019 01:08 13,9 C 12,8 C 12,2 C 96 % 1015,1 hPa 0,0 l/m 0 min 0 min 0 W/m 3,2 km/h (1 Bft) 95,74 %
05.09.2019 01:10 13,9 C 12,8 C 12,2 C 96 % 1015,1 hPa 0,0 l/m 0 min 0 min 0 W/m 3,2 km/h (1 Bft) 97,83 %
05.09.2019 01:12 13,9 C 12,2 C 12,2 C 96 % 1015,1 hPa 0,0 l/m 0 min 0 min 0 W/m 0,0 km/h (0 Bft) 97,87 %
05.09.2019 01:14 13,9 C 12,2 C 12,2 C 96 % 1015,1 hPa 0,0 l/m 0 min 0 min 0 W/m 3,2 km/h (1 Bft) 97,87 %
05.09.2019 01:16 13,8 C 12,2 C 12,2 C 96 % 1015,1 hPa 0,0 l/m 0 min 0 min 0 W/m 3,2 km/h (1 Bft) 95,74 %
05.09.2019 01:18 13,8 C 12,2 C 12,2 C 96 % 1015,2 hPa 0,0 l/m 0 min 0 min 0 W/m 3,2 km/h (1 Bft) 97,87 %
05.09.2019 01:20 13,8 C 12,2 C 12,2 C 96 % 1015,2 hPa 0,0 l/m 0 min 0 min 0 W/m 6,4 km/h (2 Bft) 97,87 %
05.09.2019 01:22 13,8 C 12,2 C 12,2 C 96 % 1015,2 hPa 0,0 l/m 0 min 0 min 0 W/m 6,4 km/h (2 Bft) 97,83 %
05.09.2019 01:24 13,8 C 12,2 C 12,2 C 96 % 1015,2 hPa 0,0 l/m 0 min 0 min 0 W/m 3,2 km/h (1 Bft) 97,87 %
05.09.2019 01:26 13,8 C 12,2 C 12,2 C 96 % 1015,2 hPa 0,0 l/m 0 min 0 min 0 W/m 6,4 km/h (2 Bft) 95,74 %
05.09.2019 01:28 13,7 C 12,2 C 12,2 C 96 % 1015,3 hPa 0,0 l/m 0 min 0 min 0 W/m 3,2 km/h (1 Bft) 95,74 %
05.09.2019 01:30 13,7 C 12,2 C 12,2 C 96 % 1015,2 hPa 0,0 l/m 0 min 0 min 0 W/m 6,4 km/h (2 Bft) 97,87 %
05.09.2019 01:32 13,7 C 12,2 C 12,2 C 96 % 1015,2 hPa 0,0 l/m 0 min 0 min 0 W/m 3,2 km/h (1 Bft) 95,65 %
05.09.2019 01:34 13,7 C 12,2 C 12,2 C 96 % 1015,2 hPa 0,0 l/m 0 min 0 min 0 W/m 3,2 km/h (1 Bft) 95,74 %
05.09.2019 01:36 13,7 C 12,2 C 12,2 C 96 % 1015,2 hPa 0,0 l/m 0 min 0 min 0 W/m 9,7 km/h (2 Bft) 95,74 %
05.09.2019 01:38 13,7 C 12,2 C 12,2 C 96 % 1015,2 hPa 0,0 l/m 0 min 0 min 0 W/m 3,2 km/h (1 Bft) 93,62 %
05.09.2019 01:40 13,7 C 12,2 C 12,2 C 96 % 1015,2 hPa 0,0 l/m 0 min 0 min 0 W/m 3,2 km/h (1 Bft) 97,87 %
05.09.2019 01:42 13,7 C 12,2 C 12,2 C 96 % 1015,2 hPa 0,0 l/m 0 min 0 min 0 W/m 3,2 km/h (1 Bft) 97,87 %
05.09.2019 01:44 13,7 C 12,2 C 12,2 C 96 % 1015,1 hPa 0,0 l/m 0 min 0 min 0 W/m 6,4 km/h (2 Bft) 95,65 %
05.09.2019 01:46 13,6 C 12,2 C 12,2 C 96 % 1015,2 hPa 0,0 l/m 0 min 0 min 0 W/m 9,7 km/h (2 Bft) 95,74 %
05.09.2019 01:48 13,6 C 12,2 C 12,2 C 96 % 1015,2 hPa 0,0 l/m 0 min 0 min 0 W/m 6,4 km/h (2 Bft) 93,62 %
05.09.2019 01:50 13,6 C 12,2 C 12,2 C 96 % 1015,2 hPa 0,0 l/m 0 min 0 min 0 W/m 3,2 km/h (1 Bft) 97,87 %
05.09.2019 01:52 13,6 C 12,2 C 12,2 C 96 % 1015,2 hPa 0,0 l/m 0 min 0 min 0 W/m 3,2 km/h (1 Bft) 93,62 %
05.09.2019 01:54 13,6 C 12,2 C 12,2 C 96 % 1015,1 hPa 0,0 l/m 0 min 0 min 0 W/m 6,4 km/h (2 Bft) 97,87 %
05.09.2019 01:56 13,6 C 12,2 C 12,2 C 96 % 1015,2 hPa 0,0 l/m 0 min 0 min 0 W/m 6,4 km/h (2 Bft) 95,65 %
05.09.2019 01:58 13,6 C 12,2 C 12,2 C 96 % 1015,2 hPa 0,0 l/m 0 min 0 min 0 W/m 6,4 km/h (2 Bft) 97,87 %
05.09.2019 02:00 13,6 C 12,2 C 12,2 C 96 % 1015,2 hPa 0,0 l/m 0 min 0 min 0 W/m 3,2 km/h (1 Bft) 97,87 %
05.09.2019 02:02 13,6 C 12,2 C 12,2 C 96 % 1015,1 hPa 0,0 l/m 0 min 0 min 0 W/m 0,0 km/h (0 Bft) 97,87 %
05.09.2019 02:04 13,6 C 12,2 C 12,2 C 96 % 1015,1 hPa 0,0 l/m 0 min 0 min 0 W/m 6,4 km/h (2 Bft) 97,87 %
05.09.2019 02:06 13,5 C 12,2 C 12,2 C 96 % 1015,1 hPa 0,0 l/m 0 min 0 min 0 W/m 6,4 km/h (2 Bft) 97,87 %
05.09.2019 02:08 13,5 C 12,2 C 12,2 C 96 % 1015,2 hPa 0,0 l/m 0 min 0 min 0 W/m 9,7 km/h (2 Bft) 95,65 %
05.09.2019 02:10 13,5 C 12,2 C 12,2 C 96 % 1015,2 hPa 0,0 l/m 0 min 0 min 0 W/m 0,0 km/h (0 Bft) 97,87 %
05.09.2019 02:12 13,5 C 12,2 C 12,2 C 96 % 1015,2 hPa 0,0 l/m 0 min 0 min 0 W/m 0,0 km/h (0 Bft) 97,87 %
05.09.2019 02:14 13,5 C 12,2 C 12,2 C 96 % 1015,1 hPa 0,0 l/m 0 min 0 min 0 W/m 0,0 km/h (0 Bft) 97,87 %
05.09.2019 02:16 13,5 C 12,2 C 12,2 C 96 % 1015,2 hPa 0,0 l/m 0 min 0 min 0 W/m 0,0 km/h (0 Bft) 97,87 %
05.09.2019 02:18 13,5 C 12,2 C 12,2 C 96 % 1015,2 hPa 0,0 l/m 0 min 0 min 0 W/m 6,4 km/h (2 Bft) 93,62 %
05.09.2019 02:20 13,5 C 12,2 C 12,2 C 96 % 1015,1 hPa 0,0 l/m 0 min 0 min 0 W/m 6,4 km/h (2 Bft) 95,65 %
05.09.2019 02:22 13,5 C 12,2 C 12,2 C 96 % 1015,1 hPa 0,0 l/m 0 min 0 min 0 W/m 6,4 km/h (2 Bft) 95,74 %
05.09.2019 02:24 13,5 C 12,2 C 12,2 C 96 % 1015,1 hPa 0,0 l/m 0 min 0 min 0 W/m 0,0 km/h (0 Bft) 95,74 %
05.09.2019 02:26 13,5 C 12,2 C 12,2 C 96 % 1015,1 hPa 0,0 l/m 0 min 0 min 0 W/m 6,4 km/h (2 Bft) 95,74 %
05.09.2019 02:28 13,4 C 12,2 C 12,2 C 96 % 1015,2 hPa 0,0 l/m 0 min 0 min 0 W/m 6,4 km/h (2 Bft) 93,62 %
05.09.2019 02:30 13,4 C 12,2 C 12,2 C 96 % 1015,1 hPa 0,0 l/m 0 min 0 min 0 W/m 6,4 km/h (2 Bft) 95,74 %
05.09.2019 02:32 13,4 C 12,2 C 12,2 C 96 % 1015,1 hPa 0,0 l/m 0 min 0 min 0 W/m 9,7 km/h (2 Bft) 93,48 %
05.09.2019 02:34 13,4 C 12,2 C 12,2 C 96 % 1015,1 hPa 0,0 l/m 0 min 0 min 0 W/m 9,7 km/h (2 Bft) 95,74 %
05.09.2019 02:36 13,4 C 12,2 C 12,2 C 96 % 1015,1 hPa 0,0 l/m 0 min 0 min 0 W/m 6,4 km/h (2 Bft) 97,87 %
05.09.2019 02:38 13,4 C 12,2 C 12,2 C 96 % 1015,0 hPa 0,0 l/m 0 min 0 min 0 W/m 6,4 km/h (2 Bft) 97,87 %
05.09.2019 02:40 13,4 C 12,2 C 11,7 C 96 % 1015,1 hPa 0,0 l/m 0 min 0 min 0 W/m 6,4 km/h (2 Bft) 97,87 %
05.09.2019 02:42 13,3 C 12,2 C 11,7 C 96 % 1015,2 hPa 0,0 l/m 0 min 0 min 0 W/m 3,2 km/h (1 Bft) 97,83 %
05.09.2019 02:44 13,3 C 12,2 C 11,7 C 96 % 1015,2 hPa 0,0 l/m 0 min 0 min 0 W/m 9,7 km/h (2 Bft) 95,74 %
05.09.2019 02:46 13,3 C 12,2 C 11,7 C 96 % 1015,2 hPa 0,0 l/m 0 min 0 min 0 W/m 3,2 km/h (1 Bft) 97,87 %
05.09.2019 02:48 13,3 C 12,2 C 11,7 C 96 % 1015,2 hPa 0,0 l/m 0 min 0 min 0 W/m 3,2 km/h (1 Bft) 97,87 %
05.09.2019 02:50 13,2 C 11,7 C 11,7 C 96 % 1015,2 hPa 0,0 l/m 0 min 0 min 0 W/m 9,7 km/h (2 Bft) 95,74 %
05.09.2019 02:52 13,2 C 11,7 C 11,7 C 96 % 1015,1 hPa 0,0 l/m 0 min 0 min 0 W/m 3,2 km/h (1 Bft) 97,87 %
05.09.2019 02:54 13,2 C 11,7 C 11,7 C 96 % 1015,2 hPa 0,0 l/m 0 min 0 min 0 W/m 3,2 km/h (1 Bft) 97,87 %
05.09.2019 02:56 13,2 C 11,7 C 11,7 C 96 % 1015,1 hPa 0,0 l/m 0 min 0 min 0 W/m 3,2 km/h (1 Bft) 97,83 %
05.09.2019 02:58 13,1 C 11,7 C 11,7 C 96 % 1015,2 hPa 0,0 l/m 0 min 0 min 0 W/m 6,4 km/h (2 Bft) 97,87 %
05.09.2019 03:00 13,1 C 11,7 C 11,7 C 96 % 1015,1 hPa 0,0 l/m 0 min 0 min 0 W/m 3,2 km/h (1 Bft) 97,87 %
05.09.2019 03:02 13,1 C 11,7 C 11,7 C 96 % 1015,2 hPa 0,0 l/m 0 min 0 min 0 W/m 9,7 km/h (2 Bft) 98,11 %
05.09.2019 03:04 13,1 C 11,7 C 11,7 C 96 % 1015,2 hPa 0,0 l/m 0 min 0 min 0 W/m 6,4 km/h (2 Bft) 97,87 %
05.09.2019 03:06 13,0 C 11,7 C 11,7 C 96 % 1015,2 hPa 0,0 l/m 0 min 0 min 0 W/m 6,4 km/h (2 Bft) 93,48 %
05.09.2019 03:08 12,9 C 11,7 C 11,7 C 96 % 1015,1 hPa 0,0 l/m 0 min 0 min 0 W/m 3,2 km/h (1 Bft) 95,74 %
05.09.2019 03:10 12,9 C 11,7 C 11,7 C 96 % 1015,2 hPa 0,0 l/m 0 min 0 min 0 W/m 3,2 km/h (1 Bft) 95,74 %
05.09.2019 03:12 12,9 C 11,7 C 11,7 C 96 % 1015,2 hPa 0,0 l/m 0 min 0 min 0 W/m 3,2 km/h (1 Bft) 97,87 %
05.09.2019 03:14 12,9 C 11,7 C 11,7 C 96 % 1015,2 hPa 0,0 l/m 0 min 0 min 0 W/m 12,9 km/h (3 Bft) 97,87 %
05.09.2019 03:16 12,8 C 11,7 C 11,1 C 96 % 1015,2 hPa 0,0 l/m 0 min 0 min 0 W/m 6,4 km/h (2 Bft) 95,74 %
05.09.2019 03:18 12,8 C 11,7 C 11,1 C 96 % 1015,2 hPa 0,0 l/m 0 min 0 min 0 W/m 3,2 km/h (1 Bft) 97,83 %
05.09.2019 03:20 12,8 C 11,7 C 11,1 C 96 % 1015,2 hPa 0,0 l/m 0 min 0 min 0 W/m 3,2 km/h (1 Bft) 100,00 %
05.09.2019 03:22 12,8 C 11,7 C 11,1 C 96 % 1015,2 hPa 0,0 l/m 0 min 0 min 0 W/m 9,7 km/h (2 Bft) 100,00 %
05.09.2019 03:24 12,8 C 11,7 C 11,1 C 96 % 1015,3 hPa 0,0 l/m 0 min 0 min 0 W/m 3,2 km/h (1 Bft) 100,00 %
05.09.2019 03:26 12,7 C 11,7 C 11,1 C 96 % 1015,2 hPa 0,0 l/m 0 min 0 min 0 W/m 3,2 km/h (1 Bft) 95,74 %
05.09.2019 03:28 12,7 C 11,7 C 11,1 C 96 % 1015,2 hPa 0,0 l/m 0 min 0 min 0 W/m 12,9 km/h (3 Bft) 95,74 %
05.09.2019 03:30 12,7 C 11,7 C 11,1 C 96 % 1015,2 hPa 0,0 l/m 0 min 0 min 0 W/m 12,9 km/h (3 Bft) 100,00 %
05.09.2019 03:32 12,7 C 11,7 C 11,1 C 96 % 1015,3 hPa 0,0 l/m 0 min 0 min 0 W/m 6,4 km/h (2 Bft) 100,00 %
05.09.2019 03:34 12,6 C 11,7 C 11,1 C 96 % 1015,3 hPa 0,0 l/m 0 min 0 min 0 W/m 9,7 km/h (2 Bft) 100,00 %
05.09.2019 03:36 12,6 C 11,7 C 11,1 C 96 % 1015,3 hPa 0,0 l/m 0 min 0 min 0 W/m 12,9 km/h (3 Bft) 100,00 %
05.09.2019 03:38 12,6 C 11,7 C 11,1 C 95 % 1015,3 hPa 0,0 l/m 0 min 0 min 0 W/m 9,7 km/h (2 Bft) 97,87 %
05.09.2019 03:40 12,6 C 11,1 C 11,1 C 95 % 1015,3 hPa 0,0 l/m 0 min 0 min 0 W/m 6,4 km/h (2 Bft) 100,00 %
05.09.2019 03:42 12,6 C 11,1 C 11,1 C 95 % 1015,3 hPa 0,0 l/m 0 min 0 min 0 W/m 12,9 km/h (3 Bft) 100,00 %
05.09.2019 03:44 12,5 C 11,1 C 11,1 C 95 % 1015,3 hPa 0,0 l/m 0 min 0 min 0 W/m 3,2 km/h (1 Bft) 100,00 %
05.09.2019 03:46 12,5 C 11,1 C 11,1 C 95 % 1015,3 hPa 0,0 l/m 0 min 0 min 0 W/m 6,4 km/h (2 Bft) 97,87 %
05.09.2019 03:48 12,4 C 11,1 C 11,1 C 95 % 1015,4 hPa 0,0 l/m 0 min 0 min 0 W/m 6,4 km/h (2 Bft) 95,74 %
05.09.2019 03:50 12,4 C 11,1 C 11,1 C 95 % 1015,3 hPa 0,0 l/m 0 min 0 min 0 W/m 12,9 km/h (3 Bft) 97,87 %
05.09.2019 03:52 12,4 C 11,1 C 11,1 C 95 % 1015,3 hPa 0,0 l/m 0 min 0 min 0 W/m 6,4 km/h (2 Bft) 97,87 %
05.09.2019 03:54 12,4 C 11,1 C 11,1 C 95 % 1015,4 hPa 0,0 l/m 0 min 0 min 0 W/m 9,7 km/h (2 Bft) 97,83 %
05.09.2019 03:56 12,4 C 11,1 C 11,1 C 95 % 1015,4 hPa 0,0 l/m 0 min 0 min 0 W/m 0,0 km/h (0 Bft) 97,87 %
05.09.2019 03:58 12,4 C 11,1 C 11,1 C 95 % 1015,4 hPa 0,0 l/m 0 min 0 min 0 W/m 0,0 km/h (0 Bft) 97,87 %
05.09.2019 04:00 12,4 C 11,1 C 11,1 C 95 % 1015,4 hPa 0,0 l/m 0 min 0 min 0 W/m 6,4 km/h (2 Bft) 97,87 %
05.09.2019 04:02 12,4 C 11,1 C 11,1 C 95 % 1015,4 hPa 0,0 l/m 0 min 0 min 0 W/m 9,7 km/h (2 Bft) 100,00 %
05.09.2019 04:04 12,3 C 11,1 C 11,1 C 95 % 1015,4 hPa 0,0 l/m 0 min 0 min 0 W/m 16,1 km/h (3 Bft) 100,00 %
05.09.2019 04:06 12,3 C 11,1 C 11,1 C 95 % 1015,4 hPa 0,0 l/m 0 min 0 min 0 W/m 9,7 km/h (2 Bft) 93,48 %
05.09.2019 04:08 12,3 C 11,1 C 10,6 C 95 % 1015,4 hPa 0,0 l/m 0 min 0 min 0 W/m 12,9 km/h (3 Bft) 97,87 %
05.09.2019 04:10 12,3 C 11,1 C 10,6 C 95 % 1015,4 hPa 0,0 l/m 0 min 0 min 0 W/m 6,4 km/h (2 Bft) 95,74 %
05.09.2019 04:12 12,3 C 11,1 C 10,6 C 95 % 1015,4 hPa 0,0 l/m 0 min 0 min 0 W/m 6,4 km/h (2 Bft) 95,74 %
05.09.2019 04:14 12,3 C 11,1 C 10,6 C 95 % 1015,4 hPa 0,0 l/m 0 min 0 min 0 W/m 6,4 km/h (2 Bft) 95,74 %
05.09.2019 04:16 12,3 C 11,1 C 10,6 C 95 % 1015,4 hPa 0,0 l/m 0 min 0 min 0 W/m 6,4 km/h (2 Bft) 95,65 %
05.09.2019 04:18 12,2 C 11,1 C 10,6 C 95 % 1015,4 hPa 0,0 l/m 0 min 0 min 0 W/m 6,4 km/h (2 Bft) 95,74 %
05.09.2019 04:20 12,2 C 11,1 C 10,6 C 95 % 1015,4 hPa 0,0 l/m 0 min 0 min 0 W/m 3,2 km/h (1 Bft) 95,74 %
05.09.2019 04:22 12,2 C 11,1 C 10,6 C 95 % 1015,4 hPa 0,0 l/m 0 min 0 min 0 W/m 9,7 km/h (2 Bft) 95,74 %
05.09.2019 04:24 12,2 C 11,1 C 10,6 C 95 % 1015,4 hPa 0,0 l/m 0 min 0 min 0 W/m 6,4 km/h (2 Bft) 93,62 %
05.09.2019 04:26 12,2 C 11,1 C 10,6 C 95 % 1015,4 hPa 0,0 l/m 0 min 0 min 0 W/m 9,7 km/h (2 Bft) 97,87 %
05.09.2019 04:28 12,2 C 11,1 C 10,6 C 95 % 1015,4 hPa 0,0 l/m 0 min 0 min 0 W/m 9,7 km/h (2 Bft) 93,48 %
05.09.2019 04:30 12,2 C 11,1 C 10,6 C 94 % 1015,4 hPa 0,0 l/m 0 min 0 min 0 W/m 16,1 km/h (3 Bft) 93,62 %
05.09.2019 04:32 12,2 C 11,1 C 10,6 C 94 % 1015,4 hPa 0,0 l/m 0 min 0 min 0 W/m 6,4 km/h (2 Bft) 97,87 %
05.09.2019 04:34 12,2 C 11,1 C 10,6 C 94 % 1015,4 hPa 0,0 l/m 0 min 0 min 0 W/m 6,4 km/h (2 Bft) 97,87 %
05.09.2019 04:36 12,1 C 11,1 C 10,6 C 94 % 1015,5 hPa 0,0 l/m 0 min 0 min 0 W/m 9,7 km/h (2 Bft) 97,87 %
05.09.2019 04:38 12,1 C 11,1 C 10,6 C 94 % 1015,5 hPa 0,0 l/m 0 min 0 min 0 W/m 3,2 km/h (1 Bft) 97,87 %
05.09.2019 04:40 12,1 C 11,1 C 10,6 C 94 % 1015,5 hPa 0,0 l/m 0 min 0 min 0 W/m 3,2 km/h (1 Bft) 97,83 %
05.09.2019 04:42 12,1 C 11,1 C 10,6 C 94 % 1015,5 hPa 0,0 l/m 0 min 0 min 0 W/m 6,4 km/h (2 Bft) 95,74 %
05.09.2019 04:44 12,1 C 11,1 C 10,6 C 94 % 1015,5 hPa 0,0 l/m 0 min 0 min 0 W/m 3,2 km/h (1 Bft) 97,87 %
05.09.2019 04:46 12,1 C 11,1 C 10,6 C 94 % 1015,4 hPa 0,0 l/m 0 min 0 min 0 W/m 9,7 km/h (2 Bft) 97,87 %
05.09.2019 04:48 12,1 C 11,1 C 10,6 C 94 % 1015,5 hPa 0,0 l/m 0 min 0 min 0 W/m 3,2 km/h (1 Bft) 97,87 %
05.09.2019 04:50 12,1 C 11,1 C 10,6 C 94 % 1015,5 hPa 0,0 l/m 0 min 0 min 0 W/m 16,1 km/h (3 Bft) 97,87 %
05.09.2019 04:52 12,1 C 11,1 C 10,6 C 94 % 1015,4 hPa 0,0 l/m 0 min 0 min 0 W/m 12,9 km/h (3 Bft) 97,83 %
05.09.2019 04:54 12,0 C 11,1 C 10,6 C 94 % 1015,5 hPa 0,0 l/m 0 min 0 min 0 W/m 9,7 km/h (2 Bft) 97,87 %
05.09.2019 04:56 12,0 C 11,1 C 10,6 C 94 % 1015,5 hPa 0,0 l/m 0 min 0 min 0 W/m 9,7 km/h (2 Bft) 97,87 %
05.09.2019 04:58 12,0 C 11,1 C 10,6 C 94 % 1015,5 hPa 0,0 l/m 0 min 0 min 0 W/m 12,9 km/h (3 Bft) 97,87 %
05.09.2019 05:00 12,0 C 11,1 C 10,6 C 94 % 1015,5 hPa 0,0 l/m 0 min 0 min 0 W/m 12,9 km/h (3 Bft) 95,74 %
05.09.2019 05:02 12,0 C 11,1 C 10,6 C 94 % 1015,5 hPa 0,0 l/m 0 min 0 min 0 W/m 12,9 km/h (3 Bft) 97,87 %
05.09.2019 05:04 12,0 C 11,1 C 10,6 C 94 % 1015,5 hPa 0,0 l/m 0 min 0 min 0 W/m 12,9 km/h (3 Bft) 97,83 %
05.09.2019 05:06 12,0 C 11,1 C 10,6 C 94 % 1015,5 hPa 0,0 l/m 0 min 0 min 0 W/m 9,7 km/h (2 Bft) 95,74 %
05.09.2019 05:08 11,9 C 11,1 C 10,6 C 94 % 1015,5 hPa 0,0 l/m 0 min 0 min 0 W/m 9,7 km/h (2 Bft) 97,87 %
05.09.2019 05:10 11,9 C 11,1 C 10,6 C 94 % 1015,4 hPa 0,0 l/m 0 min 0 min 0 W/m 9,7 km/h (2 Bft) 95,74 %
05.09.2019 05:12 11,9 C 11,1 C 10,6 C 94 % 1015,5 hPa 0,0 l/m 0 min 0 min 0 W/m 3,2 km/h (1 Bft) 97,87 %
05.09.2019 05:14 11,9 C 11,1 C 10,6 C 94 % 1015,5 hPa 0,0 l/m 0 min 0 min 0 W/m 12,9 km/h (3 Bft) 100,00 %
05.09.2019 05:16 11,9 C 11,1 C 10,6 C 94 % 1015,5 hPa 0,0 l/m 0 min 0 min 0 W/m 6,4 km/h (2 Bft) 100,00 %
05.09.2019 05:18 11,9 C 11,1 C 10,6 C 94 % 1015,5 hPa 0,0 l/m 0 min 0 min 0 W/m 9,7 km/h (2 Bft) 97,87 %
05.09.2019 05:20 11,9 C 11,1 C 11,1 C 94 % 1015,5 hPa 0,0 l/m 0 min 0 min 0 W/m 6,4 km/h (2 Bft) 100,00 %
05.09.2019 05:22 11,9 C 11,1 C 11,1 C 94 % 1015,5 hPa 0,0 l/m 0 min 0 min 0 W/m 9,7 km/h (2 Bft) 100,00 %
05.09.2019 05:24 11,9 C 11,1 C 11,1 C 93 % 1015,6 hPa 0,0 l/m 0 min 0 min 0 W/m 6,4 km/h (2 Bft) 97,87 %
05.09.2019 05:26 11,9 C 11,1 C 11,1 C 93 % 1015,6 hPa 0,0 l/m 0 min 0 min 0 W/m 32,2 km/h (5 Bft) 97,83 %
05.09.2019 05:28 11,9 C 11,1 C 10,6 C 93 % 1015,6 hPa 0,0 l/m 0 min 0 min 0 W/m 9,7 km/h (2 Bft) 100,00 %
05.09.2019 05:30 11,9 C 11,1 C 10,6 C 93 % 1015,6 hPa 0,0 l/m 0 min 0 min 0 W/m 16,1 km/h (3 Bft) 100,00 %
05.09.2019 05:32 11,9 C 11,1 C 11,1 C 93 % 1015,7 hPa 0,0 l/m 0 min 0 min 0 W/m 6,4 km/h (2 Bft) 100,00 %
05.09.2019 05:34 11,9 C 11,1 C 11,1 C 93 % 1015,7 hPa 0,0 l/m 0 min 0 min 0 W/m 9,7 km/h (2 Bft) 97,87 %
05.09.2019 05:36 11,9 C 11,1 C 11,1 C 93 % 1015,7 hPa 0,0 l/m 0 min 0 min 0 W/m 9,7 km/h (2 Bft) 100,00 %
05.09.2019 05:38 11,9 C 11,1 C 11,1 C 93 % 1015,7 hPa 0,0 l/m 0 min 0 min 0 W/m 9,7 km/h (2 Bft) 100,00 %
05.09.2019 05:40 11,9 C 11,1 C 11,1 C 93 % 1015,7 hPa 0,0 l/m 0 min 0 min 0 W/m 12,9 km/h (3 Bft) 100,00 %
05.09.2019 05:42 11,9 C 11,1 C 11,1 C 93 % 1015,6 hPa 0,0 l/m 0 min 0 min 0 W/m 6,4 km/h (2 Bft) 100,00 %
05.09.2019 05:44 11,9 C 11,1 C 11,1 C 93 % 1015,8 hPa 0,0 l/m 0 min 0 min 0 W/m 9,7 km/h (2 Bft) 97,87 %
05.09.2019 05:46 11,9 C 11,1 C 10,6 C 93 % 1015,8 hPa 0,0 l/m 0 min 0 min 0 W/m 9,7 km/h (2 Bft) 97,87 %
05.09.2019 05:48 11,9 C 11,1 C 11,1 C 93 % 1015,8 hPa 0,0 l/m 0 min 0 min 0 W/m 16,1 km/h (3 Bft) 100,00 %
05.09.2019 05:50 11,8 C 11,1 C 11,1 C 93 % 1015,8 hPa 0,0 l/m 0 min 0 min 0 W/m 12,9 km/h (3 Bft) 100,00 %
05.09.2019 05:52 11,8 C 11,1 C 11,1 C 93 % 1015,8 hPa 0,0 l/m 0 min 0 min 0 W/m 3,2 km/h (1 Bft) 100,00 %
05.09.2019 05:54 11,8 C 11,1 C 10,6 C 93 % 1015,8 hPa 0,0 l/m 0 min 0 min 0 W/m 6,4 km/h (2 Bft) 100,00 %
05.09.2019 05:56 11,8 C 11,1 C 10,6 C 93 % 1015,8 hPa 0,0 l/m 0 min 0 min 0 W/m 6,4 km/h (2 Bft) 97,87 %
05.09.2019 05:58 11,8 C 11,1 C 10,6 C 93 % 1015,9 hPa 0,0 l/m 0 min 0 min 0 W/m 3,2 km/h (1 Bft) 97,87 %
05.09.2019 06:00 11,8 C 11,1 C 10,6 C 93 % 1015,9 hPa 0,0 l/m 0 min 0 min 0 W/m 6,4 km/h (2 Bft) 97,87 %
05.09.2019 06:02 11,8 C 11,1 C 11,1 C 93 % 1015,9 hPa 0,0 l/m 0 min 0 min 0 W/m 22,5 km/h (4 Bft) 97,83 %
05.09.2019 06:04 11,8 C 11,1 C 11,1 C 93 % 1015,9 hPa 0,0 l/m 0 min 0 min 0 W/m 12,9 km/h (3 Bft) 95,74 %
05.09.2019 06:08 11,8 C 11,1 C 11,1 C 93 % 1015,9 hPa 0,0 l/m 0 min 0 min 0 W/m 12,9 km/h (3 Bft) 96,81 %
05.09.2019 06:10 11,8 C 11,1 C 11,1 C 94 % 1015,9 hPa 0,0 l/m 0 min 0 min 0 W/m 0,0 km/h (0 Bft) 95,74 %
05.09.2019 06:12 11,8 C 11,1 C 11,1 C 94 % 1016,0 hPa 0,0 l/m 0 min 0 min 0 W/m 9,7 km/h (2 Bft) 97,87 %
05.09.2019 06:14 11,8 C 11,1 C 11,1 C 94 % 1016,0 hPa 0,0 l/m 0 min 0 min 0 W/m 12,9 km/h (3 Bft) 97,83 %
05.09.2019 06:16 11,8 C 11,1 C 11,1 C 94 % 1015,9 hPa 0,0 l/m 0 min 0 min 0 W/m 16,1 km/h (3 Bft) 97,87 %
05.09.2019 06:18 11,8 C 11,1 C 11,1 C 94 % 1016,0 hPa 0,0 l/m 0 min 0 min 0 W/m 6,4 km/h (2 Bft) 97,87 %
05.09.2019 06:20 11,8 C 11,1 C 11,1 C 94 % 1016,0 hPa 0,0 l/m 0 min 0 min 0 W/m 9,7 km/h (2 Bft) 95,74 %
05.09.2019 06:22 11,9 C 11,1 C 11,1 C 94 % 1016,1 hPa 0,0 l/m 0 min 0 min 0 W/m 16,1 km/h (3 Bft) 97,87 %
05.09.2019 06:24 11,9 C 11,1 C 11,1 C 94 % 1016,1 hPa 0,0 l/m 0 min 0 min 0 W/m 6,4 km/h (2 Bft) 95,74 %
05.09.2019 06:26 11,8 C 11,1 C 11,1 C 94 % 1016,1 hPa 0,0 l/m 0 min 0 min 0 W/m 9,7 km/h (2 Bft) 95,65 %
05.09.2019 06:28 11,8 C 11,1 C 11,1 C 94 % 1016,2 hPa 0,0 l/m 0 min 0 min 0 W/m 6,4 km/h (2 Bft) 97,87 %
05.09.2019 06:30 11,8 C 11,1 C 11,1 C 94 % 1016,2 hPa 0,0 l/m 0 min 0 min 0 W/m 12,9 km/h (3 Bft) 97,87 %
05.09.2019 06:32 11,8 C 11,1 C 11,1 C 94 % 1016,3 hPa 0,0 l/m 0 min 0 min 0 W/m 3,2 km/h (1 Bft) 97,87 %
05.09.2019 06:34 11,9 C 11,1 C 11,1 C 94 % 1016,2 hPa 0,0 l/m 0 min 0 min 0 W/m 16,1 km/h (3 Bft) 95,74 %
05.09.2019 06:36 11,8 C 11,1 C 11,1 C 94 % 1016,3 hPa 0,0 l/m 0 min 0 min 0 W/m 3,2 km/h (1 Bft) 95,65 %
05.09.2019 06:38 11,8 C 11,1 C 11,1 C 94 % 1016,3 hPa 0,0 l/m 0 min 0 min 0 W/m 16,1 km/h (3 Bft) 93,62 %
05.09.2019 06:40 11,8 C 11,1 C 11,1 C 94 % 1016,3 hPa 0,0 l/m 0 min 0 min 0 W/m 6,4 km/h (2 Bft) 95,74 %
05.09.2019 06:42 11,8 C 11,1 C 11,1 C 94 % 1016,4 hPa 0,0 l/m 0 min 0 min 0 W/m 9,7 km/h (2 Bft) 93,62 %
05.09.2019 06:44 11,8 C 11,1 C 11,1 C 94 % 1016,4 hPa 0,0 l/m 0 min 0 min 0 W/m 9,7 km/h (2 Bft) 93,62 %
05.09.2019 06:46 11,9 C 11,1 C 11,1 C 94 % 1016,4 hPa 0,0 l/m 0 min 0 min 0 W/m 6,4 km/h (2 Bft) 93,62 %
05.09.2019 06:48 11,9 C 11,1 C 11,1 C 94 % 1016,4 hPa 0,0 l/m 0 min 0 min 0 W/m 9,7 km/h (2 Bft) 91,30 %
05.09.2019 06:50 11,9 C 11,1 C 11,1 C 94 % 1016,4 hPa 0,0 l/m 0 min 0 min 0 W/m 3,2 km/h (1 Bft) 95,74 %
05.09.2019 06:52 11,9 C 11,1 C 11,1 C 94 % 1016,5 hPa 0,0 l/m 0 min 0 min 0 W/m 6,4 km/h (2 Bft) 95,74 %
05.09.2019 06:54 11,9 C 11,1 C 11,1 C 94 % 1016,5 hPa 0,0 l/m 0 min 0 min 0 W/m 6,4 km/h (2 Bft) 95,74 %
05.09.2019 06:56 11,9 C 11,1 C 11,1 C 94 % 1016,5 hPa 0,0 l/m 0 min 0 min 5 W/m 9,7 km/h (2 Bft) 91,49 %
05.09.2019 06:58 11,9 C 11,1 C 11,1 C 94 % 1016,5 hPa 0,0 l/m 0 min 0 min 5 W/m 9,7 km/h (2 Bft) 93,62 %
05.09.2019 07:00 11,9 C 11,7 C 11,1 C 94 % 1016,5 hPa 0,0 l/m 0 min 0 min 7 W/m 6,4 km/h (2 Bft) 93,48 %
05.09.2019 07:02 11,9 C 11,7 C 11,1 C 94 % 1016,6 hPa 0,0 l/m 0 min 0 min 7 W/m 6,4 km/h (2 Bft) 95,74 %
05.09.2019 07:04 11,9 C 11,7 C 11,1 C 94 % 1016,6 hPa 0,0 l/m 0 min 0 min 7 W/m 3,2 km/h (1 Bft) 97,87 %
05.09.2019 07:06 11,9 C 11,7 C 11,1 C 94 % 1016,6 hPa 0,0 l/m 0 min 0 min 8 W/m 12,9 km/h (3 Bft) 95,74 %
05.09.2019 07:08 11,9 C 11,7 C 11,1 C 94 % 1016,6 hPa 0,0 l/m 0 min 0 min 11 W/m 12,9 km/h (3 Bft) 95,74 %
05.09.2019 07:10 11,9 C 11,7 C 11,1 C 94 % 1016,6 hPa 0,0 l/m 0 min 0 min 12 W/m 16,1 km/h (3 Bft) 95,74 %
05.09.2019 07:12 11,9 C 11,7 C 11,1 C 94 % 1016,6 hPa 0,0 l/m 0 min 0 min 12 W/m 12,9 km/h (3 Bft) 93,48 %
05.09.2019 07:14 12,0 C 11,7 C 11,1 C 94 % 1016,6 hPa 0,0 l/m 0 min 0 min 12 W/m 9,7 km/h (2 Bft) 95,74 %
05.09.2019 07:16 12,0 C 11,7 C 11,1 C 94 % 1016,7 hPa 0,0 l/m 0 min 0 min 15 W/m 6,4 km/h (2 Bft) 93,62 %
05.09.2019 07:18 12,0 C 11,7 C 11,1 C 94 % 1016,7 hPa 0,0 l/m 0 min 0 min 17 W/m 6,4 km/h (2 Bft) 91,49 %
05.09.2019 07:20 12,0 C 11,7 C 11,1 C 94 % 1016,7 hPa 0,0 l/m 0 min 0 min 19 W/m 6,4 km/h (2 Bft) 95,74 %
05.09.2019 07:22 12,0 C 11,7 C 11,7 C 94 % 1016,8 hPa 0,0 l/m 0 min 0 min 22 W/m 6,4 km/h (2 Bft) 95,74 %
05.09.2019 07:24 12,0 C 11,7 C 11,7 C 94 % 1016,7 hPa 0,0 l/m 0 min 0 min 25 W/m 6,4 km/h (2 Bft) 97,83 %
05.09.2019 07:26 12,0 C 11,7 C 11,7 C 94 % 1016,8 hPa 0,0 l/m 0 min 0 min 23 W/m 6,4 km/h (2 Bft) 95,74 %
05.09.2019 07:28 12,1 C 11,7 C 11,7 C 94 % 1016,8 hPa 0,0 l/m 0 min 0 min 24 W/m 6,4 km/h (2 Bft) 97,87 %
05.09.2019 07:30 12,1 C 11,7 C 11,7 C 94 % 1016,8 hPa 0,0 l/m 0 min 0 min 26 W/m 3,2 km/h (1 Bft) 97,87 %
05.09.2019 07:32 12,1 C 11,7 C 11,7 C 94 % 1016,7 hPa 0,0 l/m 0 min 0 min 27 W/m 9,7 km/h (2 Bft) 95,74 %
05.09.2019 07:34 12,1 C 11,7 C 11,7 C 94 % 1016,8 hPa 0,0 l/m 0 min 0 min 28 W/m 6,4 km/h (2 Bft) 97,96 %
05.09.2019 07:36 12,1 C 11,7 C 11,7 C 94 % 1016,7 hPa 0,0 l/m 0 min 0 min 28 W/m 16,1 km/h (3 Bft) 97,37 %
05.09.2019 07:38 12,1 C 11,7 C 11,7 C 94 % 1016,9 hPa 0,0 l/m 0 min 0 min 32 W/m 9,7 km/h (2 Bft) 97,87 %
05.09.2019 07:40 12,2 C 12,2 C 11,7 C 94 % 1016,9 hPa 0,0 l/m 0 min 0 min 35 W/m 16,1 km/h (3 Bft) 96,23 %
05.09.2019 07:42 12,2 C 12,2 C 11,7 C 94 % 1016,9 hPa 0,0 l/m 0 min 0 min 37 W/m 6,4 km/h (2 Bft) 98,00 %
05.09.2019 07:44 12,2 C 12,2 C 11,7 C 94 % 1016,9 hPa 0,0 l/m 0 min 0 min 37 W/m 9,7 km/h (2 Bft) 97,37 %
05.09.2019 07:46 12,2 C 12,2 C 11,7 C 94 % 1017,0 hPa 0,0 l/m 0 min 0 min 39 W/m 12,9 km/h (3 Bft) 97,83 %
05.09.2019 07:48 12,2 C 12,2 C 11,7 C 94 % 1017,0 hPa 0,0 l/m 0 min 0 min 40 W/m 9,7 km/h (2 Bft) 96,23 %
05.09.2019 07:50 12,2 C 12,2 C 11,7 C 94 % 1017,0 hPa 0,0 l/m 0 min 0 min 40 W/m 9,7 km/h (2 Bft) 96,00 %
05.09.2019 07:52 12,3 C 12,2 C 11,7 C 94 % 1017,0 hPa 0,0 l/m 0 min 0 min 40 W/m 9,7 km/h (2 Bft) 97,37 %
05.09.2019 07:54 12,3 C 12,2 C 11,7 C 94 % 1017,1 hPa 0,0 l/m 0 min 0 min 39 W/m 9,7 km/h (2 Bft) 97,87 %
05.09.2019 07:56 12,3 C 12,2 C 11,7 C 94 % 1017,1 hPa 0,0 l/m 0 min 0 min 40 W/m 9,7 km/h (2 Bft) 100,00 %
05.09.2019 07:58 12,3 C 12,2 C 11,7 C 94 % 1017,1 hPa 0,0 l/m 0 min 0 min 40 W/m 6,4 km/h (2 Bft) 100,00 %
05.09.2019 08:00 12,3 C 12,2 C 11,7 C 94 % 1017,1 hPa 0,0 l/m 0 min 0 min 43 W/m 9,7 km/h (2 Bft) 100,00 %
05.09.2019 08:02 12,4 C 12,2 C 11,7 C 94 % 1017,1 hPa 0,0 l/m 0 min 0 min 46 W/m 9,7 km/h (2 Bft) 100,00 %
05.09.2019 08:04 12,4 C 12,2 C 11,7 C 94 % 1017,2 hPa 0,0 l/m 0 min 0 min 47 W/m 12,9 km/h (3 Bft) 97,87 %
05.09.2019 08:06 12,4 C 12,2 C 12,2 C 94 % 1017,2 hPa 0,0 l/m 0 min 0 min 49 W/m 16,1 km/h (3 Bft) 100,00 %
05.09.2019 08:08 12,4 C 12,2 C 12,2 C 94 % 1017,3 hPa 0,0 l/m 0 min 0 min 52 W/m 9,7 km/h (2 Bft) 100,00 %
05.09.2019 08:10 12,4 C 12,2 C 12,2 C 94 % 1017,3 hPa 0,0 l/m 0 min 0 min 55 W/m 6,4 km/h (2 Bft) 97,30 %
05.09.2019 08:12 12,4 C 12,2 C 12,2 C 94 % 1017,3 hPa 0,0 l/m 0 min 0 min 56 W/m 3,2 km/h (1 Bft) 98,11 %
05.09.2019 08:14 12,4 C 12,2 C 12,2 C 94 % 1017,3 hPa 0,0 l/m 0 min 0 min 53 W/m 6,4 km/h (2 Bft) 100,00 %
05.09.2019 08:16 12,5 C 12,2 C 12,2 C 94 % 1017,3 hPa 0,0 l/m 0 min 0 min 51 W/m 9,7 km/h (2 Bft) 97,37 %
05.09.2019 08:18 12,5 C 12,8 C 12,2 C 94 % 1017,4 hPa 0,0 l/m 0 min 0 min 49 W/m 6,4 km/h (2 Bft) 100,00 %
05.09.2019 08:20 12,6 C 12,8 C 12,2 C 94 % 1017,4 hPa 0,0 l/m 0 min 0 min 49 W/m 6,4 km/h (2 Bft) 100,00 %
05.09.2019 08:22 12,6 C 12,8 C 12,2 C 94 % 1017,4 hPa 0,0 l/m 0 min 0 min 45 W/m 6,4 km/h (2 Bft) 100,00 %
05.09.2019 08:24 12,6 C 12,2 C 12,2 C 94 % 1017,5 hPa 0,0 l/m 0 min 0 min 42 W/m 9,7 km/h (2 Bft) 100,00 %
05.09.2019 08:26 12,6 C 12,2 C 12,2 C 94 % 1017,5 hPa 0,0 l/m 0 min 0 min 42 W/m 9,7 km/h (2 Bft) 95,74 %
05.09.2019 08:28 12,6 C 12,2 C 12,2 C 94 % 1017,5 hPa 0,0 l/m 0 min 0 min 42 W/m 16,1 km/h (3 Bft) 100,00 %
05.09.2019 08:30 12,6 C 12,2 C 12,2 C 94 % 1017,5 hPa 0,0 l/m 0 min 0 min 42 W/m 19,3 km/h (3 Bft) 100,00 %
05.09.2019 08:32 12,6 C 12,2 C 12,2 C 94 % 1017,5 hPa 0,0 l/m 0 min 0 min 51 W/m 9,7 km/h (2 Bft) 100,00 %
05.09.2019 08:34 12,6 C 12,8 C 12,2 C 94 % 1017,5 hPa 0,0 l/m 0 min 0 min 53 W/m 9,7 km/h (2 Bft) 100,00 %
05.09.2019 08:36 12,6 C 12,8 C 12,2 C 94 % 1017,6 hPa 0,0 l/m 0 min 0 min 54 W/m 6,4 km/h (2 Bft) 95,74 %
05.09.2019 08:38 12,7 C 12,8 C 12,2 C 94 % 1017,6 hPa 0,0 l/m 0 min 0 min 54 W/m 9,7 km/h (2 Bft) 100,00 %
05.09.2019 08:40 12,7 C 12,8 C 12,2 C 94 % 1017,6 hPa 0,0 l/m 0 min 0 min 56 W/m 9,7 km/h (2 Bft) 98,00 %
05.09.2019 08:42 12,7 C 12,8 C 12,2 C 94 % 1017,6 hPa 0,0 l/m 0 min 0 min 58 W/m 19,3 km/h (3 Bft) 97,37 %
05.09.2019 08:44 12,7 C 12,8 C 12,2 C 94 % 1017,7 hPa 0,0 l/m 0 min 0 min 60 W/m 12,9 km/h (3 Bft) 100,00 %
05.09.2019 08:46 12,8 C 12,8 C 12,2 C 94 % 1017,7 hPa 0,0 l/m 0 min 0 min 62 W/m 12,9 km/h (3 Bft) 100,00 %
05.09.2019 08:48 12,8 C 13,3 C 12,2 C 94 % 1017,7 hPa 0,0 l/m 0 min 0 min 63 W/m 9,7 km/h (2 Bft) 100,00 %
05.09.2019 08:50 12,8 C 13,3 C 12,8 C 94 % 1017,7 hPa 0,0 l/m 0 min 0 min 68 W/m 22,5 km/h (4 Bft) 100,00 %
05.09.2019 08:52 12,9 C 13,3 C 12,8 C 94 % 1017,7 hPa 0,0 l/m 0 min 0 min 84 W/m 16,1 km/h (3 Bft) 100,00 %
05.09.2019 08:54 12,9 C 13,3 C 12,8 C 94 % 1017,7 hPa 0,0 l/m 0 min 0 min 78 W/m 19,3 km/h (3 Bft) 97,37 %
05.09.2019 08:56 12,9 C 13,3 C 12,8 C 94 % 1017,7 hPa 0,0 l/m 0 min 0 min 72 W/m 22,5 km/h (4 Bft) 100,00 %
05.09.2019 08:58 13,0 C 13,3 C 12,8 C 94 % 1017,8 hPa 0,0 l/m 0 min 0 min 72 W/m 12,9 km/h (3 Bft) 100,00 %
05.09.2019 09:00 13,1 C 13,3 C 12,8 C 94 % 1017,8 hPa 0,0 l/m 0 min 0 min 76 W/m 6,4 km/h (2 Bft) 100,00 %
05.09.2019 09:02 13,1 C 13,9 C 12,8 C 94 % 1017,9 hPa 0,0 l/m 0 min 0 min 142 W/m 9,7 km/h (2 Bft) 100,00 %
05.09.2019 09:04 13,2 C 13,9 C 12,8 C 94 % 1017,9 hPa 0,0 l/m 0 min 0 min 151 W/m 16,1 km/h (3 Bft) 100,00 %
05.09.2019 09:06 13,2 C 13,9 C 12,8 C 94 % 1017,9 hPa 0,0 l/m 0 min 0 min 78 W/m 6,4 km/h (2 Bft) 98,11 %
05.09.2019 09:08 13,2 C 13,9 C 12,8 C 94 % 1017,9 hPa 0,0 l/m 0 min 0 min 80 W/m 9,7 km/h (2 Bft) 97,96 %
05.09.2019 09:10 13,3 C 14,4 C 13,3 C 94 % 1017,9 hPa 0,0 l/m 0 min 0 min 150 W/m 6,4 km/h (2 Bft) 100,00 %
05.09.2019 09:12 13,3 C 15,0 C 13,3 C 94 % 1017,9 hPa 0,0 l/m 2 min 0 min 271 W/m 12,9 km/h (3 Bft) 100,00 %
05.09.2019 09:14 13,3 C 15,6 C 13,3 C 94 % 1018,0 hPa 0,0 l/m 2 min 0 min 291 W/m 12,9 km/h (3 Bft) 98,00 %
05.09.2019 09:16 13,4 C 16,1 C 13,3 C 94 % 1017,9 hPa 0,0 l/m 2 min 0 min 296 W/m 16,1 km/h (3 Bft) 97,37 %
05.09.2019 09:18 13,4 C 16,7 C 13,3 C 94 % 1018,0 hPa 0,0 l/m 2 min 0 min 303 W/m 9,7 km/h (2 Bft) 97,87 %
05.09.2019 09:20 13,5 C 16,7 C 13,3 C 94 % 1018,1 hPa 0,0 l/m 2 min 0 min 317 W/m 12,9 km/h (3 Bft) 96,15 %
05.09.2019 09:22 13,6 C 16,7 C 13,3 C 94 % 1018,0 hPa 0,0 l/m 2 min 0 min 325 W/m 6,4 km/h (2 Bft) 98,00 %
05.09.2019 09:24 13,7 C 17,2 C 13,9 C 94 % 1018,0 hPa 0,0 l/m 2 min 0 min 335 W/m 6,4 km/h (2 Bft) 94,74 %
05.09.2019 09:26 13,8 C 17,8 C 13,9 C 94 % 1018,0 hPa 0,0 l/m 2 min 0 min 354 W/m 9,7 km/h (2 Bft) 95,74 %
05.09.2019 09:28 13,8 C 17,8 C 13,9 C 93 % 1018,0 hPa 0,0 l/m 2 min 0 min 331 W/m 9,7 km/h (2 Bft) 94,34 %
05.09.2019 09:30 13,9 C 17,8 C 13,9 C 94 % 1018,1 hPa 0,0 l/m 2 min 0 min 352 W/m 12,9 km/h (3 Bft) 95,92 %
05.09.2019 09:32 14,0 C 18,3 C 14,4 C 93 % 1018,1 hPa 0,0 l/m 2 min 0 min 392 W/m 9,7 km/h (2 Bft) 94,74 %
05.09.2019 09:34 14,2 C 18,3 C 14,4 C 93 % 1018,2 hPa 0,0 l/m 2 min 0 min 399 W/m 9,7 km/h (2 Bft) 95,74 %
05.09.2019 09:36 14,2 C 18,3 C 14,4 C 93 % 1018,2 hPa 0,0 l/m 2 min 0 min 270 W/m 9,7 km/h (2 Bft) 94,34 %
05.09.2019 09:38 14,2 C 17,8 C 15,0 C 93 % 1018,2 hPa 0,0 l/m 2 min 0 min 230 W/m 9,7 km/h (2 Bft) 95,74 %
05.09.2019 09:40 14,4 C 18,9 C 16,7 C 93 % 1018,2 hPa 0,0 l/m 2 min 0 min 257 W/m 6,4 km/h (2 Bft) 95,74 %
05.09.2019 09:42 14,5 C 19,4 C 17,2 C 92 % 1018,2 hPa 0,0 l/m 2 min 0 min 492 W/m 12,9 km/h (3 Bft) 95,92 %
05.09.2019 09:44 14,6 C 18,9 C 17,2 C 92 % 1018,2 hPa 0,0 l/m 2 min 0 min 510 W/m 9,7 km/h (2 Bft) 94,74 %
05.09.2019 09:46 14,7 C 17,8 C 16,7 C 92 % 1018,3 hPa 0,0 l/m 2 min 0 min 259 W/m 9,7 km/h (2 Bft) 96,23 %
05.09.2019 09:48 14,8 C 17,8 C 16,7 C 91 % 1018,3 hPa 0,0 l/m 2 min 0 min 276 W/m 12,9 km/h (3 Bft) 96,00 %
05.09.2019 09:50 14,9 C 16,7 C 16,1 C 91 % 1018,4 hPa 0,0 l/m 0 min 0 min 197 W/m 16,1 km/h (3 Bft) 94,74 %
05.09.2019 09:52 14,9 C 16,7 C 16,1 C 90 % 1018,3 hPa 0,0 l/m 0 min 0 min 211 W/m 9,7 km/h (2 Bft) 97,87 %
05.09.2019 09:54 14,9 C 16,7 C 15,6 C 89 % 1018,4 hPa 0,0 l/m 2 min 0 min 246 W/m 9,7 km/h (2 Bft) 98,08 %
05.09.2019 09:56 15,0 C 16,7 C 16,1 C 88 % 1018,5 hPa 0,0 l/m 2 min 0 min 275 W/m 12,9 km/h (3 Bft) 98,00 %
05.09.2019 09:58 15,0 C 16,7 C 16,1 C 88 % 1018,6 hPa 0,0 l/m 2 min 0 min 250 W/m 9,7 km/h (2 Bft) 97,37 %
05.09.2019 10:00 15,1 C 17,8 C 16,7 C 87 % 1018,6 hPa 0,0 l/m 2 min 0 min 319 W/m 12,9 km/h (3 Bft) 97,87 %
05.09.2019 10:02 15,2 C 18,9 C 18,3 C 87 % 1018,6 hPa 0,0 l/m 2 min 0 min 452 W/m 9,7 km/h (2 Bft) 98,11 %
05.09.2019 10:04 15,2 C 18,9 C 17,8 C 87 % 1018,7 hPa 0,0 l/m 2 min 0 min 438 W/m 12,9 km/h (3 Bft) 98,00 %
05.09.2019 10:06 15,3 C 18,9 C 17,8 C 87 % 1018,8 hPa 0,0 l/m 2 min 0 min 475 W/m 9,7 km/h (2 Bft) 97,30 %
05.09.2019 10:08 15,4 C 18,9 C 18,3 C 86 % 1018,7 hPa 0,0 l/m 2 min 0 min 474 W/m 22,5 km/h (4 Bft) 97,87 %
05.09.2019 10:10 15,4 C 18,3 C 18,3 C 86 % 1018,7 hPa 0,0 l/m 2 min 0 min 502 W/m 25,7 km/h (4 Bft) 100,00 %
05.09.2019 10:12 15,5 C 19,4 C 18,9 C 86 % 1018,8 hPa 0,0 l/m 2 min 0 min 514 W/m 12,9 km/h (3 Bft) 98,11 %
05.09.2019 10:14 15,6 C 19,4 C 18,9 C 85 % 1018,9 hPa 0,0 l/m 2 min 0 min 560 W/m 16,1 km/h (3 Bft) 100,00 %
05.09.2019 10:16 15,7 C 19,4 C 19,4 C 85 % 1018,9 hPa 0,0 l/m 2 min 0 min 592 W/m 12,9 km/h (3 Bft) 97,83 %
05.09.2019 10:18 15,8 C 17,8 C 17,2 C 85 % 1018,9 hPa 0,0 l/m 2 min 0 min 282 W/m 19,3 km/h (3 Bft) 100,00 %
05.09.2019 10:20 15,8 C 17,8 C 17,2 C 84 % 1018,9 hPa 0,0 l/m 0 min 0 min 164 W/m 12,9 km/h (3 Bft) 97,87 %
05.09.2019 10:22 15,8 C 18,9 C 18,9 C 84 % 1019,0 hPa 0,0 l/m 2 min 0 min 473 W/m 22,5 km/h (4 Bft) 97,87 %
05.09.2019 10:24 15,9 C 18,9 C 18,3 C 84 % 1018,9 hPa 0,0 l/m 2 min 0 min 533 W/m 9,7 km/h (2 Bft) 100,00 %
05.09.2019 10:26 16,0 C 18,9 C 18,3 C 85 % 1019,0 hPa 0,0 l/m 2 min 0 min 306 W/m 19,3 km/h (3 Bft) 98,00 %
05.09.2019 10:28 16,0 C 18,3 C 17,8 C 84 % 1019,0 hPa 0,0 l/m 2 min 0 min 320 W/m 19,3 km/h (3 Bft) 100,00 %
05.09.2019 10:30 16,1 C 20,0 C 19,4 C 85 % 1019,0 hPa 0,0 l/m 2 min 0 min 493 W/m 9,7 km/h (2 Bft) 100,00 %
05.09.2019 10:32 16,2 C 18,9 C 17,8 C 84 % 1019,0 hPa 0,0 l/m 2 min 0 min 456 W/m 12,9 km/h (3 Bft) 98,11 %
05.09.2019 10:34 16,2 C 17,2 C 16,7 C 84 % 1019,1 hPa 0,0 l/m 0 min 0 min 196 W/m 22,5 km/h (4 Bft) 100,00 %
05.09.2019 10:36 16,2 C 16,7 C 16,1 C 83 % 1019,1 hPa 0,0 l/m 0 min 0 min 151 W/m 9,7 km/h (2 Bft) 100,00 %
05.09.2019 10:38 16,1 C 16,7 C 16,1 C 83 % 1019,1 hPa 0,0 l/m 0 min 0 min 176 W/m 6,4 km/h (2 Bft) 100,00 %
05.09.2019 10:40 16,1 C 16,7 C 16,1 C 83 % 1019,2 hPa 0,0 l/m 0 min 0 min 168 W/m 9,7 km/h (2 Bft) 97,87 %
05.09.2019 10:42 16,1 C 17,2 C 16,7 C 84 % 1019,2 hPa 0,0 l/m 0 min 0 min 188 W/m 6,4 km/h (2 Bft) 98,08 %
05.09.2019 10:44 16,2 C 19,4 C 18,3 C 84 % 1019,1 hPa 0,0 l/m 0 min 0 min 225 W/m 9,7 km/h (2 Bft) 98,00 %
05.09.2019 10:46 16,2 C 18,9 C 17,8 C 84 % 1019,2 hPa 0,0 l/m 0 min 0 min 216 W/m 6,4 km/h (2 Bft) 97,37 %
05.09.2019 10:48 16,3 C 17,2 C 16,7 C 84 % 1019,2 hPa 0,0 l/m 0 min 0 min 117 W/m 9,7 km/h (2 Bft) 97,87 %
05.09.2019 10:50 16,3 C 16,7 C 16,7 C 83 % 1019,2 hPa 0,0 l/m 0 min 0 min 116 W/m 12,9 km/h (3 Bft) 92,45 %
05.09.2019 10:52 16,2 C 16,1 C 15,6 C 82 % 1019,3 hPa 0,0 l/m 0 min 0 min 146 W/m 9,7 km/h (2 Bft) 95,92 %
05.09.2019 10:54 16,1 C 18,3 C 17,2 C 81 % 1019,2 hPa 0,0 l/m 0 min 0 min 151 W/m 9,7 km/h (2 Bft) 97,37 %
05.09.2019 10:56 16,2 C 20,0 C 18,9 C 82 % 1019,3 hPa 0,0 l/m 2 min 0 min 432 W/m 25,7 km/h (4 Bft) 95,74 %
05.09.2019 10:58 16,3 C 21,1 C 18,9 C 82 % 1019,3 hPa 0,0 l/m 2 min 0 min 619 W/m 12,9 km/h (3 Bft) 98,11 %
05.09.2019 11:00 16,4 C 22,2 C 18,9 C 81 % 1019,3 hPa 0,0 l/m 2 min 0 min 773 W/m 19,3 km/h (3 Bft) 98,00 %
05.09.2019 11:02 16,6 C 23,3 C 18,9 C 81 % 1019,3 hPa 0,0 l/m 2 min 0 min 789 W/m 9,7 km/h (2 Bft) 97,37 %
05.09.2019 11:04 16,8 C 23,3 C 18,9 C 80 % 1019,3 hPa 0,0 l/m 2 min 0 min 791 W/m 9,7 km/h (2 Bft) 97,83 %
05.09.2019 11:06 16,9 C 21,1 C 18,3 C 80 % 1019,3 hPa 0,0 l/m 2 min 0 min 305 W/m 16,1 km/h (3 Bft) 96,23 %
05.09.2019 11:08 17,0 C 20,6 C 17,8 C 80 % 1019,3 hPa 0,0 l/m 0 min 0 min 271 W/m 9,7 km/h (2 Bft) 98,00 %
05.09.2019 11:10 17,1 C 19,4 C 17,8 C 78 % 1019,3 hPa 0,0 l/m 0 min 0 min 260 W/m 25,7 km/h (4 Bft) 97,87 %
05.09.2019 11:12 17,1 C 20,6 C 17,8 C 78 % 1019,3 hPa 0,0 l/m 2 min 0 min 517 W/m 19,3 km/h (3 Bft) 97,37 %
05.09.2019 11:14 17,2 C 21,1 C 17,8 C 78 % 1019,3 hPa 0,0 l/m 2 min 0 min 758 W/m 12,9 km/h (3 Bft) 97,87 %
05.09.2019 11:16 17,3 C 22,8 C 18,3 C 79 % 1019,4 hPa 0,0 l/m 2 min 0 min 758 W/m 9,7 km/h (2 Bft) 97,83 %
05.09.2019 11:18 17,4 C 22,8 C 18,3 C 79 % 1019,4 hPa 0,0 l/m 2 min 0 min 443 W/m 12,9 km/h (3 Bft) 98,11 %
05.09.2019 11:20 17,5 C 21,7 C 18,3 C 77 % 1019,4 hPa 0,0 l/m 2 min 0 min 391 W/m 12,9 km/h (3 Bft) 98,00 %
05.09.2019 11:22 17,6 C 21,1 C 18,3 C 76 % 1019,4 hPa 0,0 l/m 2 min 0 min 353 W/m 12,9 km/h (3 Bft) 97,37 %
05.09.2019 11:24 17,6 C 20,6 C 17,8 C 76 % 1019,4 hPa 0,0 l/m 0 min 0 min 278 W/m 9,7 km/h (2 Bft) 96,23 %
05.09.2019 11:26 17,6 C 21,7 C 17,8 C 77 % 1019,4 hPa 0,0 l/m 2 min 0 min 384 W/m 9,7 km/h (2 Bft) 97,96 %
05.09.2019 11:28 17,7 C 23,3 C 18,3 C 77 % 1019,4 hPa 0,0 l/m 2 min 0 min 859 W/m 9,7 km/h (2 Bft) 97,37 %
05.09.2019 11:30 17,8 C 22,8 C 18,3 C 76 % 1019,4 hPa 0,0 l/m 2 min 0 min 867 W/m 12,9 km/h (3 Bft) 95,74 %
05.09.2019 11:32 17,8 C 20,0 C 17,8 C 76 % 1019,4 hPa 0,0 l/m 2 min 0 min 367 W/m 9,7 km/h (2 Bft) 96,23 %
05.09.2019 11:34 17,8 C 18,3 C 17,2 C 74 % 1019,6 hPa 0,0 l/m 0 min 0 min 126 W/m 9,7 km/h (2 Bft) 94,00 %
05.09.2019 11:36 17,7 C 17,8 C 17,2 C 74 % 1019,5 hPa 0,0 l/m 0 min 0 min 167 W/m 6,4 km/h (2 Bft) 97,37 %
05.09.2019 11:38 17,7 C 17,8 C 16,7 C 75 % 1019,5 hPa 0,0 l/m 0 min 0 min 158 W/m 12,9 km/h (3 Bft) 93,62 %
05.09.2019 11:40 17,6 C 18,9 C 16,7 C 75 % 1019,5 hPa 0,0 l/m 0 min 0 min 138 W/m 9,7 km/h (2 Bft) 95,65 %
05.09.2019 11:42 17,6 C 20,6 C 17,2 C 75 % 1019,5 hPa 0,0 l/m 2 min 0 min 470 W/m 22,5 km/h (4 Bft) 96,23 %
05.09.2019 11:44 17,7 C 23,3 C 18,3 C 75 % 1019,5 hPa 0,0 l/m 2 min 0 min 758 W/m 9,7 km/h (2 Bft) 96,00 %
05.09.2019 11:46 17,9 C 23,3 C 18,3 C 75 % 1019,6 hPa 0,0 l/m 2 min 0 min 758 W/m 9,7 km/h (2 Bft) 94,74 %
05.09.2019 11:48 18,1 C 23,9 C 18,3 C 74 % 1019,5 hPa 0,0 l/m 2 min 0 min 733 W/m 9,7 km/h (2 Bft) 95,74 %
05.09.2019 11:50 18,2 C 23,9 C 18,3 C 74 % 1019,6 hPa 0,0 l/m 2 min 0 min 748 W/m 9,7 km/h (2 Bft) 96,23 %
05.09.2019 11:52 18,4 C 25,0 C 18,9 C 74 % 1019,6 hPa 0,0 l/m 2 min 0 min 768 W/m 9,7 km/h (2 Bft) 95,65 %
05.09.2019 11:54 18,5 C 25,6 C 18,9 C 74 % 1019,6 hPa 0,0 l/m 2 min 0 min 755 W/m 12,9 km/h (3 Bft) 94,00 %
05.09.2019 11:56 18,7 C 25,0 C 18,9 C 73 % 1019,6 hPa 0,0 l/m 2 min 0 min 760 W/m 9,7 km/h (2 Bft) 97,37 %
05.09.2019 11:58 18,8 C 24,4 C 18,9 C 73 % 1019,5 hPa 0,0 l/m 2 min 0 min 786 W/m 12,9 km/h (3 Bft) 93,62 %
05.09.2019 12:00 18,9 C 24,4 C 18,9 C 72 % 1019,7 hPa 0,0 l/m 0 min 0 min 279 W/m 9,7 km/h (2 Bft) 96,23 %
05.09.2019 12:02 19,1 C 24,4 C 18,9 C 71 % 1019,6 hPa 0,0 l/m 2 min 0 min 769 W/m 12,9 km/h (3 Bft) 93,48 %
05.09.2019 12:04 19,2 C 25,6 C 18,9 C 70 % 1019,6 hPa 0,0 l/m 2 min 0 min 774 W/m 16,1 km/h (3 Bft) 94,00 %
05.09.2019 12:08 19,5 C 26,7 C 19,4 C 70 % 1019,7 hPa 0,0 l/m 4 min 0 min 848 W/m 9,7 km/h (2 Bft) 97,65 %
05.09.2019 12:10 19,7 C 26,1 C 19,4 C 70 % 1019,6 hPa 0,0 l/m 2 min 0 min 647 W/m 9,7 km/h (2 Bft) 93,62 %
05.09.2019 12:12 19,8 C 25,0 C 19,4 C 69 % 1019,7 hPa 0,0 l/m 0 min 0 min 318 W/m 16,1 km/h (3 Bft) 94,34 %
05.09.2019 12:14 19,8 C 23,3 C 18,9 C 68 % 1019,7 hPa 0,0 l/m 0 min 0 min 314 W/m 9,7 km/h (2 Bft) 95,92 %
05.09.2019 12:16 19,9 C 25,0 C 19,4 C 68 % 1019,7 hPa 0,0 l/m 2 min 0 min 596 W/m 12,9 km/h (3 Bft) 97,37 %
05.09.2019 12:18 19,9 C 23,9 C 19,4 C 68 % 1019,7 hPa 0,0 l/m 2 min 0 min 813 W/m 12,9 km/h (3 Bft) 98,11 %
05.09.2019 12:20 19,9 C 21,1 C 18,9 C 67 % 1019,8 hPa 0,0 l/m 0 min 0 min 197 W/m 9,7 km/h (2 Bft) 96,00 %
05.09.2019 12:22 19,7 C 20,0 C 18,3 C 68 % 1019,7 hPa 0,0 l/m 0 min 0 min 206 W/m 12,9 km/h (3 Bft) 97,87 %
05.09.2019 12:24 19,7 C 19,4 C 18,3 C 68 % 1019,8 hPa 0,0 l/m 0 min 0 min 285 W/m 12,9 km/h (3 Bft) 94,74 %
05.09.2019 12:26 19,6 C 20,6 C 18,9 C 68 % 1019,7 hPa 0,0 l/m 2 min 0 min 352 W/m 9,7 km/h (2 Bft) 95,65 %
05.09.2019 12:28 19,4 C 20,6 C 18,3 C 67 % 1019,7 hPa 0,0 l/m 0 min 0 min 305 W/m 12,9 km/h (3 Bft) 98,11 %
05.09.2019 12:30 19,4 C 19,4 C 18,3 C 68 % 1019,8 hPa 0,0 l/m 0 min 2 min 201 W/m 12,9 km/h (3 Bft) 98,00 %
05.09.2019 12:32 19,3 C 18,3 C 17,2 C 69 % 1019,8 hPa 0,0 l/m 0 min 0 min 156 W/m 9,7 km/h (2 Bft) 97,37 %
05.09.2019 12:34 19,1 C 18,3 C 17,2 C 69 % 1019,9 hPa 0,0 l/m 0 min 0 min 147 W/m 9,7 km/h (2 Bft) 97,87 %
05.09.2019 12:36 19,1 C 18,3 C 17,2 C 70 % 1019,8 hPa 0,0 l/m 0 min 0 min 161 W/m 9,7 km/h (2 Bft) 97,87 %
05.09.2019 12:38 18,9 C 18,3 C 17,2 C 70 % 1020,0 hPa 0,0 l/m 0 min 0 min 162 W/m 12,9 km/h (3 Bft) 98,08 %
05.09.2019 12:40 18,8 C 17,8 C 17,2 C 70 % 1020,0 hPa 0,0 l/m 0 min 0 min 112 W/m 25,7 km/h (4 Bft) 98,00 %
05.09.2019 12:42 18,6 C 16,7 C 16,1 C 70 % 1020,0 hPa 0,0 l/m 0 min 2 min 102 W/m 12,9 km/h (3 Bft) 97,37 %
05.09.2019 12:44 18,4 C 16,1 C 16,1 C 71 % 1020,0 hPa 0,0 l/m 0 min 2 min 136 W/m 22,5 km/h (4 Bft) 97,87 %
05.09.2019 12:46 18,2 C 16,1 C 16,1 C 72 % 1020,1 hPa 0,0 l/m 0 min 2 min 173 W/m 9,7 km/h (2 Bft) 96,30 %
05.09.2019 12:48 18,1 C 16,1 C 16,1 C 73 % 1020,2 hPa 0,0 l/m 0 min 0 min 200 W/m 9,7 km/h (2 Bft) 97,87 %
05.09.2019 12:50 17,8 C 16,7 C 16,7 C 73 % 1020,2 hPa 0,0 l/m 0 min 0 min 224 W/m 16,1 km/h (3 Bft) 97,37 %
05.09.2019 12:52 17,7 C 16,7 C 16,7 C 74 % 1020,2 hPa 0,0 l/m 0 min 0 min 245 W/m 16,1 km/h (3 Bft) 96,36 %
05.09.2019 12:54 17,4 C 16,7 C 16,7 C 74 % 1020,3 hPa 0,0 l/m 0 min 0 min 262 W/m 12,9 km/h (3 Bft) 97,37 %
05.09.2019 12:56 17,3 C 16,7 C 16,7 C 75 % 1020,3 hPa 0,0 l/m 0 min 0 min 266 W/m 9,7 km/h (2 Bft) 98,21 %
05.09.2019 12:58 17,2 C 16,7 C 16,7 C 76 % 1020,3 hPa 0,0 l/m 0 min 0 min 258 W/m 12,9 km/h (3 Bft) 100,00 %
05.09.2019 13:00 17,1 C 17,2 C 16,7 C 77 % 1020,3 hPa 0,0 l/m 0 min 0 min 268 W/m 9,7 km/h (2 Bft) 96,36 %
05.09.2019 13:02 17,1 C 17,2 C 16,7 C 77 % 1020,4 hPa 0,0 l/m 0 min 0 min 291 W/m 12,9 km/h (3 Bft) 95,74 %
05.09.2019 13:04 17,0 C 17,8 C 17,2 C 78 % 1020,4 hPa 0,0 l/m 0 min 0 min 304 W/m 9,7 km/h (2 Bft) 100,00 %
05.09.2019 13:06 17,0 C 17,8 C 17,2 C 78 % 1020,4 hPa 0,0 l/m 0 min 0 min 296 W/m 12,9 km/h (3 Bft) 100,00 %
05.09.2019 13:08 16,9 C 17,8 C 17,2 C 78 % 1020,4 hPa 0,0 l/m 0 min 0 min 285 W/m 12,9 km/h (3 Bft) 100,00 %
05.09.2019 13:10 16,9 C 17,8 C 17,2 C 78 % 1020,4 hPa 0,0 l/m 0 min 0 min 264 W/m 12,9 km/h (3 Bft) 100,00 %
05.09.2019 13:12 16,9 C 17,8 C 17,2 C 78 % 1020,5 hPa 0,0 l/m 0 min 0 min 259 W/m 16,1 km/h (3 Bft) 97,83 %
05.09.2019 13:14 16,9 C 18,3 C 17,2 C 78 % 1020,5 hPa 0,0 l/m 0 min 0 min 260 W/m 12,9 km/h (3 Bft) 100,00 %
05.09.2019 13:16 16,9 C 20,6 C 17,2 C 78 % 1020,6 hPa 0,0 l/m 0 min 0 min 260 W/m 6,4 km/h (2 Bft) 100,00 %
05.09.2019 13:18 17,1 C 22,2 C 17,8 C 78 % 1020,6 hPa 0,0 l/m 0 min 0 min 260 W/m 16,1 km/h (3 Bft) 100,00 %
05.09.2019 13:20 17,2 C 22,8 C 17,8 C 78 % 1020,6 hPa 0,0 l/m 2 min 0 min 420 W/m 16,1 km/h (3 Bft) 100,00 %
05.09.2019 13:22 17,4 C 23,9 C 18,3 C 78 % 1020,6 hPa 0,0 l/m 2 min 0 min 808 W/m 9,7 km/h (2 Bft) 97,87 %
05.09.2019 13:24 17,7 C 24,4 C 18,9 C 77 % 1020,6 hPa 0,0 l/m 2 min 0 min 988 W/m 19,3 km/h (3 Bft) 100,00 %
05.09.2019 13:26 17,9 C 23,3 C 18,9 C 75 % 1020,6 hPa 0,0 l/m 2 min 0 min 720 W/m 16,1 km/h (3 Bft) 100,00 %
05.09.2019 13:28 18,2 C 22,2 C 18,9 C 75 % 1020,6 hPa 0,0 l/m 2 min 0 min 720 W/m 29,0 km/h (5 Bft) 100,00 %
05.09.2019 13:30 18,3 C 20,6 C 18,3 C 74 % 1020,8 hPa 0,0 l/m 2 min 0 min 494 W/m 16,1 km/h (3 Bft) 98,00 %
05.09.2019 13:32 18,3 C 19,4 C 17,8 C 71 % 1020,9 hPa 0,0 l/m 0 min 0 min 332 W/m 19,3 km/h (3 Bft) 100,00 %
05.09.2019 13:34 18,2 C 19,4 C 17,8 C 69 % 1020,8 hPa 0,0 l/m 0 min 0 min 341 W/m 25,7 km/h (4 Bft) 100,00 %
05.09.2019 13:36 18,2 C 19,4 C 17,8 C 69 % 1020,9 hPa 0,0 l/m 0 min 0 min 325 W/m 12,9 km/h (3 Bft) 98,08 %
05.09.2019 13:38 18,1 C 19,4 C 17,8 C 70 % 1020,9 hPa 0,0 l/m 2 min 0 min 350 W/m 12,9 km/h (3 Bft) 100,00 %
05.09.2019 13:40 18,1 C 20,0 C 17,8 C 70 % 1021,0 hPa 0,0 l/m 2 min 0 min 397 W/m 9,7 km/h (2 Bft) 100,00 %
05.09.2019 13:42 18,1 C 20,6 C 18,3 C 70 % 1021,1 hPa 0,0 l/m 2 min 0 min 431 W/m 9,7 km/h (2 Bft) 97,87 %
05.09.2019 13:44 18,1 C 20,6 C 18,3 C 70 % 1021,1 hPa 0,0 l/m 2 min 0 min 377 W/m 12,9 km/h (3 Bft) 98,11 %
05.09.2019 13:46 18,1 C 20,6 C 18,3 C 71 % 1021,0 hPa 0,0 l/m 2 min 0 min 410 W/m 6,4 km/h (2 Bft) 100,00 %
05.09.2019 13:48 18,2 C 20,6 C 18,3 C 71 % 1021,0 hPa 0,0 l/m 0 min 0 min 335 W/m 9,7 km/h (2 Bft) 100,00 %
05.09.2019 13:50 18,2 C 20,0 C 18,3 C 69 % 1021,1 hPa 0,0 l/m 0 min 0 min 305 W/m 16,1 km/h (3 Bft) 100,00 %
05.09.2019 13:52 18,1 C 19,4 C 18,3 C 69 % 1021,1 hPa 0,0 l/m 0 min 0 min 319 W/m 16,1 km/h (3 Bft) 100,00 %
05.09.2019 13:54 18,1 C 19,4 C 18,3 C 70 % 1021,1 hPa 0,0 l/m 0 min 0 min 303 W/m 12,9 km/h (3 Bft) 100,00 %
05.09.2019 13:56 18,1 C 19,4 C 17,8 C 70 % 1021,1 hPa 0,0 l/m 0 min 0 min 292 W/m 12,9 km/h (3 Bft) 100,00 %
05.09.2019 13:58 18,1 C 19,4 C 17,8 C 70 % 1021,1 hPa 0,0 l/m 0 min 0 min 279 W/m 9,7 km/h (2 Bft) 94,74 %
05.09.2019 14:00 18,1 C 20,6 C 18,9 C 71 % 1021,0 hPa 0,0 l/m 0 min 0 min 292 W/m 12,9 km/h (3 Bft) 97,83 %
05.09.2019 14:02 18,1 C 23,3 C 21,1 C 71 % 1021,0 hPa 0,0 l/m 0 min 0 min 292 W/m 9,7 km/h (2 Bft) 97,87 %
05.09.2019 14:04 18,3 C 25,0 C 21,7 C 73 % 1021,0 hPa 0,0 l/m 2 min 0 min 410 W/m 9,7 km/h (2 Bft) 98,11 %
05.09.2019 14:06 18,4 C 25,0 C 20,6 C 72 % 1021,1 hPa 0,0 l/m 2 min 0 min 855 W/m 9,7 km/h (2 Bft) 98,00 %
05.09.2019 14:08 18,7 C 25,0 C 20,6 C 72 % 1021,1 hPa 0,0 l/m 2 min 0 min 819 W/m 19,3 km/h (3 Bft) 97,87 %
05.09.2019 14:10 18,8 C 25,0 C 20,6 C 70 % 1021,0 hPa 0,0 l/m 2 min 0 min 956 W/m 19,3 km/h (3 Bft) 97,30 %
05.09.2019 14:12 18,9 C 23,3 C 20,0 C 68 % 1021,1 hPa 0,0 l/m 2 min 0 min 979 W/m 12,9 km/h (3 Bft) 97,87 %
05.09.2019 14:14 18,9 C 20,6 C 18,9 C 67 % 1021,2 hPa 0,0 l/m 0 min 0 min 271 W/m 16,1 km/h (3 Bft) 97,87 %
05.09.2019 14:16 18,9 C 19,4 C 18,3 C 67 % 1021,1 hPa 0,0 l/m 0 min 0 min 199 W/m 16,1 km/h (3 Bft) 95,74 %
05.09.2019 14:18 18,8 C 18,3 C 17,8 C 67 % 1021,1 hPa 0,0 l/m 0 min 2 min 195 W/m 22,5 km/h (4 Bft) 98,11 %
05.09.2019 14:20 18,7 C 18,3 C 17,2 C 67 % 1021,1 hPa 0,0 l/m 0 min 0 min 214 W/m 19,3 km/h (3 Bft) 98,00 %
05.09.2019 14:22 18,6 C 18,3 C 17,2 C 67 % 1021,1 hPa 0,0 l/m 0 min 0 min 248 W/m 9,7 km/h (2 Bft) 95,65 %
05.09.2019 14:24 18,5 C 18,9 C 17,2 C 68 % 1021,2 hPa 0,0 l/m 0 min 0 min 288 W/m 19,3 km/h (3 Bft) 97,87 %
05.09.2019 14:26 18,4 C 20,6 C 17,8 C 68 % 1021,2 hPa 0,0 l/m 2 min 0 min 378 W/m 16,1 km/h (3 Bft) 94,74 %
05.09.2019 14:28 18,4 C 22,8 C 18,9 C 69 % 1021,2 hPa 0,0 l/m 2 min 0 min 968 W/m 12,9 km/h (3 Bft) 97,87 %
05.09.2019 14:30 18,5 C 22,8 C 18,9 C 70 % 1021,2 hPa 0,0 l/m 2 min 0 min 970 W/m 9,7 km/h (2 Bft) 96,23 %
05.09.2019 14:32 18,6 C 22,2 C 18,9 C 70 % 1021,2 hPa 0,0 l/m 2 min 0 min 653 W/m 12,9 km/h (3 Bft) 96,00 %
05.09.2019 14:34 18,6 C 22,2 C 18,3 C 69 % 1021,2 hPa 0,0 l/m 2 min 0 min 362 W/m 9,7 km/h (2 Bft) 94,59 %
05.09.2019 14:36 18,7 C 22,8 C 18,3 C 68 % 1021,2 hPa 0,0 l/m 2 min 0 min 559 W/m 19,3 km/h (3 Bft) 95,74 %
05.09.2019 14:38 18,7 C 23,9 C 18,3 C 68 % 1021,2 hPa 0,0 l/m 2 min 0 min 718 W/m 12,9 km/h (3 Bft) 98,11 %
05.09.2019 14:40 18,8 C 24,4 C 18,3 C 68 % 1021,2 hPa 0,0 l/m 2 min 0 min 819 W/m 19,3 km/h (3 Bft) 100,00 %
05.09.2019 14:42 18,9 C 25,0 C 18,3 C 67 % 1021,3 hPa 0,0 l/m 2 min 0 min 816 W/m 19,3 km/h (3 Bft) 97,37 %
05.09.2019 14:44 19,1 C 25,0 C 18,9 C 66 % 1021,2 hPa 0,0 l/m 2 min 0 min 808 W/m 19,3 km/h (3 Bft) 97,87 %
05.09.2019 14:46 19,2 C 25,0 C 18,9 C 65 % 1021,3 hPa 0,0 l/m 2 min 0 min 821 W/m 22,5 km/h (4 Bft) 100,00 %
05.09.2019 14:48 19,3 C 25,0 C 18,9 C 66 % 1021,3 hPa 0,0 l/m 2 min 0 min 677 W/m 16,1 km/h (3 Bft) 100,00 %
05.09.2019 14:50 19,4 C 25,0 C 18,9 C 66 % 1021,2 hPa 0,0 l/m 2 min 0 min 734 W/m 12,9 km/h (3 Bft) 100,00 %
05.09.2019 14:52 19,6 C 24,4 C 18,9 C 65 % 1021,2 hPa 0,0 l/m 2 min 0 min 861 W/m 12,9 km/h (3 Bft) 100,00 %
05.09.2019 14:54 19,6 C 24,4 C 19,4 C 65 % 1021,2 hPa 0,0 l/m 2 min 0 min 624 W/m 16,1 km/h (3 Bft) 100,00 %
05.09.2019 14:56 19,7 C 22,8 C 18,9 C 65 % 1021,3 hPa 0,0 l/m 2 min 0 min 445 W/m 16,1 km/h (3 Bft) 95,92 %
05.09.2019 14:58 19,7 C 21,1 C 18,9 C 63 % 1021,3 hPa 0,0 l/m 0 min 0 min 318 W/m 25,7 km/h (4 Bft) 100,00 %
05.09.2019 15:00 19,6 C 20,6 C 18,9 C 62 % 1021,4 hPa 0,0 l/m 2 min 0 min 342 W/m 22,5 km/h (4 Bft) 100,00 %
05.09.2019 15:02 19,5 C 20,6 C 18,9 C 62 % 1021,4 hPa 0,0 l/m 2 min 0 min 372 W/m 22,5 km/h (4 Bft) 98,11 %
05.09.2019 15:04 19,4 C 20,6 C 18,9 C 64 % 1021,4 hPa 0,0 l/m 2 min 0 min 398 W/m 12,9 km/h (3 Bft) 100,00 %
05.09.2019 15:06 19,4 C 21,1 C 19,4 C 64 % 1021,4 hPa 0,0 l/m 2 min 0 min 387 W/m 19,3 km/h (3 Bft) 100,00 %
05.09.2019 15:08 19,4 C 21,1 C 18,9 C 64 % 1021,5 hPa 0,0 l/m 2 min 0 min 397 W/m 9,7 km/h (2 Bft) 97,87 %
05.09.2019 15:10 19,3 C 20,6 C 18,9 C 64 % 1021,5 hPa 0,0 l/m 2 min 0 min 354 W/m 12,9 km/h (3 Bft) 94,23 %
05.09.2019 15:12 19,3 C 20,6 C 18,9 C 64 % 1021,5 hPa 0,0 l/m 0 min 0 min 287 W/m 6,4 km/h (2 Bft) 96,00 %
05.09.2019 15:14 19,2 C 20,0 C 18,9 C 64 % 1021,5 hPa 0,0 l/m 0 min 0 min 240 W/m 12,9 km/h (3 Bft) 97,87 %
05.09.2019 15:16 19,2 C 19,4 C 18,3 C 65 % 1021,5 hPa 0,0 l/m 0 min 0 min 170 W/m 9,7 km/h (2 Bft) 97,37 %
05.09.2019 15:18 19,1 C 17,8 C 17,8 C 65 % 1021,6 hPa 0,0 l/m 0 min 0 min 135 W/m 12,9 km/h (3 Bft) 95,74 %
05.09.2019 15:20 19,0 C 17,2 C 17,2 C 66 % 1021,7 hPa 0,0 l/m 0 min 2 min 134 W/m 16,1 km/h (3 Bft) 96,23 %
05.09.2019 15:22 18,9 C 17,8 C 17,2 C 66 % 1021,7 hPa 0,0 l/m 0 min 2 min 137 W/m 12,9 km/h (3 Bft) 95,92 %
05.09.2019 15:24 18,8 C 17,2 C 17,2 C 66 % 1021,8 hPa 0,0 l/m 0 min 2 min 105 W/m 29,0 km/h (5 Bft) 97,37 %
05.09.2019 15:26 18,6 C 17,2 C 16,7 C 66 % 1021,8 hPa 0,0 l/m 0 min 0 min 91 W/m 12,9 km/h (3 Bft) 97,87 %
05.09.2019 15:28 18,5 C 17,2 C 16,7 C 67 % 1021,8 hPa 0,0 l/m 0 min 0 min 89 W/m 12,9 km/h (3 Bft) 94,34 %
05.09.2019 15:30 18,4 C 17,2 C 16,7 C 67 % 1021,8 hPa 0,0 l/m 0 min 0 min 101 W/m 12,9 km/h (3 Bft) 94,00 %
05.09.2019 15:32 18,2 C 17,2 C 16,7 C 67 % 1021,8 hPa 0,0 l/m 0 min 0 min 129 W/m 16,1 km/h (3 Bft) 94,59 %
05.09.2019 15:34 18,1 C 17,2 C 16,7 C 67 % 1021,9 hPa 0,0 l/m 0 min 0 min 187 W/m 12,9 km/h (3 Bft) 93,62 %
05.09.2019 15:36 18,1 C 17,8 C 16,7 C 67 % 1021,9 hPa 0,0 l/m 0 min 0 min 211 W/m 16,1 km/h (3 Bft) 94,34 %
05.09.2019 15:38 18,0 C 17,8 C 17,2 C 68 % 1021,8 hPa 0,0 l/m 0 min 0 min 173 W/m 9,7 km/h (2 Bft) 96,00 %
05.09.2019 15:40 18,0 C 17,8 C 17,2 C 70 % 1022,0 hPa 0,0 l/m 0 min 0 min 162 W/m 12,9 km/h (3 Bft) 94,74 %
05.09.2019 15:42 17,9 C 17,8 C 17,2 C 70 % 1022,0 hPa 0,0 l/m 0 min 0 min 167 W/m 12,9 km/h (3 Bft) 95,74 %
05.09.2019 15:44 17,9 C 18,9 C 17,2 C 70 % 1022,0 hPa 0,0 l/m 0 min 0 min 185 W/m 12,9 km/h (3 Bft) 96,23 %
05.09.2019 15:46 17,9 C 21,1 C 17,8 C 71 % 1022,0 hPa 0,0 l/m 0 min 0 min 185 W/m 25,7 km/h (4 Bft) 95,92 %
05.09.2019 15:48 18,0 C 20,0 C 17,8 C 71 % 1022,0 hPa 0,0 l/m 0 min 0 min 217 W/m 12,9 km/h (3 Bft) 94,74 %
05.09.2019 15:50 18,0 C 19,4 C 17,8 C 71 % 1022,0 hPa 0,0 l/m 0 min 0 min 243 W/m 16,1 km/h (3 Bft) 95,74 %
05.09.2019 15:52 18,0 C 20,6 C 17,8 C 71 % 1022,1 hPa 0,0 l/m 0 min 0 min 259 W/m 12,9 km/h (3 Bft) 96,23 %
05.09.2019 15:54 18,1 C 23,3 C 18,3 C 72 % 1022,0 hPa 0,0 l/m 0 min 0 min 260 W/m 12,9 km/h (3 Bft) 92,00 %
05.09.2019 15:56 18,2 C 23,9 C 18,9 C 71 % 1022,1 hPa 0,0 l/m 2 min 0 min 583 W/m 19,3 km/h (3 Bft) 97,30 %
05.09.2019 15:58 18,4 C 25,0 C 18,9 C 70 % 1022,1 hPa 0,0 l/m 2 min 0 min 698 W/m 12,9 km/h (3 Bft) 93,62 %
05.09.2019 16:00 18,6 C 25,6 C 18,9 C 69 % 1022,1 hPa 0,0 l/m 2 min 0 min 684 W/m 12,9 km/h (3 Bft) 97,87 %
05.09.2019 16:02 18,8 C 25,6 C 18,9 C 67 % 1022,0 hPa 0,0 l/m 2 min 0 min 672 W/m 9,7 km/h (2 Bft) 98,11 %
05.09.2019 16:04 19,0 C 26,1 C 19,4 C 67 % 1022,0 hPa 0,0 l/m 2 min 0 min 676 W/m 12,9 km/h (3 Bft) 96,00 %
05.09.2019 16:06 19,2 C 26,1 C 19,4 C 67 % 1022,1 hPa 0,0 l/m 2 min 0 min 675 W/m 9,7 km/h (2 Bft) 97,87 %
05.09.2019 16:08 19,4 C 26,1 C 18,9 C 66 % 1022,1 hPa 0,0 l/m 2 min 0 min 677 W/m 12,9 km/h (3 Bft) 95,65 %
05.09.2019 16:10 19,5 C 25,0 C 18,9 C 65 % 1022,1 hPa 0,0 l/m 2 min 0 min 650 W/m 12,9 km/h (3 Bft) 94,74 %
05.09.2019 16:12 19,6 C 25,0 C 18,9 C 65 % 1022,1 hPa 0,0 l/m 2 min 0 min 652 W/m 12,9 km/h (3 Bft) 97,87 %
05.09.2019 16:14 19,7 C 25,0 C 19,4 C 65 % 1022,1 hPa 0,0 l/m 2 min 0 min 696 W/m 6,4 km/h (2 Bft) 98,11 %
05.09.2019 16:16 19,8 C 25,0 C 20,0 C 66 % 1022,1 hPa 0,0 l/m 2 min 0 min 696 W/m 6,4 km/h (2 Bft) 98,00 %
05.09.2019 16:18 19,9 C 24,4 C 20,0 C 67 % 1022,1 hPa 0,0 l/m 2 min 0 min 459 W/m 6,4 km/h (2 Bft) 94,74 %
05.09.2019 16:20 19,9 C 22,2 C 19,4 C 64 % 1022,1 hPa 0,0 l/m 0 min 0 min 221 W/m 12,9 km/h (3 Bft) 97,83 %
05.09.2019 16:22 19,9 C 20,6 C 18,9 C 64 % 1022,1 hPa 0,0 l/m 0 min 0 min 91 W/m 12,9 km/h (3 Bft) 96,23 %
05.09.2019 16:24 19,8 C 18,9 C 18,3 C 64 % 1022,3 hPa 0,0 l/m 0 min 0 min 57 W/m 12,9 km/h (3 Bft) 96,00 %
05.09.2019 16:26 19,7 C 18,3 C 17,8 C 64 % 1022,3 hPa 0,0 l/m 0 min 0 min 36 W/m 3,2 km/h (1 Bft) 97,87 %
05.09.2019 16:28 19,6 C 17,2 C 16,7 C 65 % 1022,4 hPa 0,0 l/m 0 min 2 min 47 W/m 12,9 km/h (3 Bft) 94,74 %
05.09.2019 16:30 19,3 C 16,7 C 16,1 C 66 % 1022,4 hPa 0,0 l/m 0 min 2 min 81 W/m 16,1 km/h (3 Bft) 93,48 %
05.09.2019 16:32 19,1 C 17,8 C 16,7 C 67 % 1022,4 hPa 0,0 l/m 0 min 2 min 129 W/m 12,9 km/h (3 Bft) 91,49 %
05.09.2019 16:34 18,9 C 20,6 C 18,9 C 68 % 1022,5 hPa 0,0 l/m 2 min 2 min 374 W/m 9,7 km/h (2 Bft) 94,34 %
05.09.2019 16:36 18,9 C 21,7 C 19,4 C 69 % 1022,5 hPa 0,0 l/m 2 min 0 min 645 W/m 12,9 km/h (3 Bft) 96,00 %
05.09.2019 16:38 18,9 C 23,3 C 20,6 C 70 % 1022,5 hPa 0,0 l/m 2 min 0 min 652 W/m 12,9 km/h (3 Bft) 94,74 %
05.09.2019 16:40 18,9 C 23,9 C 21,7 C 70 % 1022,6 hPa 0,0 l/m 2 min 0 min 649 W/m 12,9 km/h (3 Bft) 95,74 %
05.09.2019 16:42 19,0 C 24,4 C 22,8 C 70 % 1022,5 hPa 0,0 l/m 2 min 0 min 625 W/m 9,7 km/h (2 Bft) 96,15 %
05.09.2019 16:44 19,1 C 24,4 C 23,3 C 71 % 1022,5 hPa 0,0 l/m 2 min 0 min 619 W/m 9,7 km/h (2 Bft) 96,00 %
05.09.2019 16:46 19,2 C 25,0 C 22,8 C 71 % 1022,6 hPa 0,0 l/m 2 min 0 min 655 W/m 9,7 km/h (2 Bft) 92,11 %
05.09.2019 16:48 19,3 C 25,0 C 21,7 C 71 % 1022,6 hPa 0,0 l/m 2 min 0 min 644 W/m 12,9 km/h (3 Bft) 95,74 %
05.09.2019 16:50 19,4 C 25,0 C 21,7 C 70 % 1022,6 hPa 0,0 l/m 2 min 0 min 620 W/m 6,4 km/h (2 Bft) 96,23 %
05.09.2019 16:52 19,6 C 25,0 C 21,7 C 69 % 1022,7 hPa 0,0 l/m 2 min 0 min 568 W/m 16,1 km/h (3 Bft) 96,00 %
05.09.2019 16:54 19,6 C 24,4 C 22,2 C 68 % 1022,7 hPa 0,0 l/m 2 min 0 min 557 W/m 16,1 km/h (3 Bft) 97,30 %
05.09.2019 16:56 19,7 C 24,4 C 21,1 C 66 % 1022,7 hPa 0,0 l/m 2 min 0 min 563 W/m 9,7 km/h (2 Bft) 97,87 %
05.09.2019 16:58 19,7 C 25,0 C 20,6 C 68 % 1022,6 hPa 0,0 l/m 2 min 0 min 581 W/m 6,4 km/h (2 Bft) 98,11 %
05.09.2019 17:00 19,8 C 25,0 C 20,0 C 68 % 1022,7 hPa 0,0 l/m 2 min 0 min 567 W/m 12,9 km/h (3 Bft) 98,00 %
05.09.2019 17:02 19,9 C 25,0 C 19,4 C 66 % 1022,7 hPa 0,0 l/m 2 min 0 min 536 W/m 9,7 km/h (2 Bft) 97,37 %
05.09.2019 17:04 19,9 C 24,4 C 19,4 C 65 % 1022,8 hPa 0,0 l/m 2 min 0 min 507 W/m 16,1 km/h (3 Bft) 97,87 %
05.09.2019 17:06 19,9 C 23,9 C 18,9 C 64 % 1022,8 hPa 0,0 l/m 2 min 0 min 519 W/m 12,9 km/h (3 Bft) 98,08 %
05.09.2019 17:08 19,9 C 20,6 C 18,3 C 61 % 1022,7 hPa 0,0 l/m 0 min 0 min 186 W/m 19,3 km/h (3 Bft) 98,00 %
05.09.2019 17:10 19,7 C 18,9 C 17,2 C 60 % 1022,8 hPa 0,0 l/m 0 min 0 min 135 W/m 19,3 km/h (3 Bft) 100,00 %
05.09.2019 17:12 19,6 C 18,9 C 17,2 C 61 % 1022,8 hPa 0,0 l/m 0 min 0 min 183 W/m 9,7 km/h (2 Bft) 100,00 %
05.09.2019 17:14 19,4 C 20,0 C 17,8 C 62 % 1022,9 hPa 0,0 l/m 2 min 0 min 266 W/m 9,7 km/h (2 Bft) 100,00 %
05.09.2019 17:16 19,3 C 19,4 C 17,8 C 62 % 1022,9 hPa 0,0 l/m 2 min 0 min 344 W/m 12,9 km/h (3 Bft) 97,96 %
05.09.2019 17:18 19,2 C 18,9 C 17,2 C 63 % 1022,8 hPa 0,0 l/m 0 min 0 min 183 W/m 9,7 km/h (2 Bft) 100,00 %
05.09.2019 17:20 19,1 C 18,9 C 17,2 C 63 % 1022,8 hPa 0,0 l/m 2 min 0 min 233 W/m 12,9 km/h (3 Bft) 100,00 %
05.09.2019 17:22 18,9 C 18,9 C 17,2 C 62 % 1022,9 hPa 0,0 l/m 2 min 0 min 225 W/m 9,7 km/h (2 Bft) 100,00 %
05.09.2019 17:24 18,8 C 18,3 C 17,2 C 63 % 1022,9 hPa 0,0 l/m 2 min 0 min 207 W/m 12,9 km/h (3 Bft) 100,00 %
05.09.2019 17:26 18,7 C 18,3 C 17,2 C 62 % 1023,0 hPa 0,0 l/m 0 min 0 min 189 W/m 12,9 km/h (3 Bft) 100,00 %
05.09.2019 17:28 18,6 C 18,3 C 17,2 C 62 % 1023,0 hPa 0,0 l/m 0 min 0 min 188 W/m 12,9 km/h (3 Bft) 100,00 %
05.09.2019 17:30 18,4 C 18,9 C 17,2 C 62 % 1023,1 hPa 0,0 l/m 2 min 0 min 210 W/m 12,9 km/h (3 Bft) 100,00 %
05.09.2019 17:32 18,4 C 20,6 C 17,2 C 61 % 1023,1 hPa 0,0 l/m 2 min 0 min 360 W/m 12,9 km/h (3 Bft) 100,00 %
05.09.2019 17:34 18,3 C 20,6 C 17,2 C 60 % 1023,2 hPa 0,0 l/m 2 min 0 min 418 W/m 12,9 km/h (3 Bft) 100,00 %
05.09.2019 17:36 18,3 C 19,4 C 17,2 C 61 % 1023,2 hPa 0,0 l/m 2 min 0 min 238 W/m 12,9 km/h (3 Bft) 100,00 %
05.09.2019 17:38 18,2 C 18,9 C 17,2 C 61 % 1023,2 hPa 0,0 l/m 0 min 0 min 179 W/m 9,7 km/h (2 Bft) 100,00 %
05.09.2019 17:40 18,1 C 18,3 C 16,7 C 62 % 1023,1 hPa 0,0 l/m 0 min 0 min 145 W/m 19,3 km/h (3 Bft) 100,00 %
05.09.2019 17:42 18,1 C 17,2 C 16,7 C 63 % 1023,1 hPa 0,0 l/m 0 min 0 min 126 W/m 12,9 km/h (3 Bft) 100,00 %
05.09.2019 17:44 17,9 C 17,2 C 16,1 C 63 % 1023,1 hPa 0,0 l/m 0 min 0 min 113 W/m 12,9 km/h (3 Bft) 100,00 %
05.09.2019 17:46 17,8 C 16,7 C 16,1 C 64 % 1023,1 hPa 0,0 l/m 0 min 0 min 93 W/m 19,3 km/h (3 Bft) 100,00 %
05.09.2019 17:48 17,7 C 16,7 C 16,1 C 66 % 1023,2 hPa 0,0 l/m 0 min 0 min 87 W/m 22,5 km/h (4 Bft) 100,00 %
05.09.2019 17:50 17,6 C 16,1 C 16,1 C 66 % 1023,1 hPa 0,0 l/m 0 min 0 min 92 W/m 25,7 km/h (4 Bft) 100,00 %
05.09.2019 17:52 17,5 C 16,1 C 16,1 C 67 % 1023,1 hPa 0,0 l/m 0 min 0 min 95 W/m 25,7 km/h (4 Bft) 100,00 %
05.09.2019 17:54 17,4 C 16,1 C 16,1 C 68 % 1023,1 hPa 0,0 l/m 0 min 0 min 93 W/m 19,3 km/h (3 Bft) 100,00 %
05.09.2019 17:56 17,3 C 16,1 C 16,1 C 69 % 1023,2 hPa 0,0 l/m 0 min 0 min 81 W/m 9,7 km/h (2 Bft) 97,87 %
05.09.2019 17:58 17,2 C 16,1 C 15,6 C 69 % 1023,3 hPa 0,0 l/m 0 min 0 min 70 W/m 9,7 km/h (2 Bft) 100,00 %
05.09.2019 18:00 17,1 C 16,1 C 15,6 C 70 % 1023,3 hPa 0,0 l/m 0 min 0 min 61 W/m 12,9 km/h (3 Bft) 98,11 %
05.09.2019 18:02 17,0 C 15,6 C 15,6 C 70 % 1023,4 hPa 0,0 l/m 0 min 0 min 52 W/m 29,0 km/h (5 Bft) 97,96 %
05.09.2019 18:04 16,9 C 15,6 C 15,6 C 71 % 1023,4 hPa 0,0 l/m 0 min 0 min 45 W/m 9,7 km/h (2 Bft) 100,00 %
05.09.2019 18:08 16,8 C 15,6 C 15,6 C 70 % 1023,4 hPa 0,0 l/m 0 min 0 min 40 W/m 9,7 km/h (2 Bft) 96,81 %
05.09.2019 18:10 16,7 C 15,6 C 15,6 C 69 % 1023,4 hPa 0,0 l/m 0 min 0 min 40 W/m 12,9 km/h (3 Bft) 95,74 %
05.09.2019 18:12 16,6 C 15,6 C 15,0 C 68 % 1023,3 hPa 0,0 l/m 0 min 0 min 45 W/m 19,3 km/h (3 Bft) 98,11 %
05.09.2019 18:14 16,6 C 15,6 C 15,0 C 68 % 1023,3 hPa 0,0 l/m 0 min 0 min 50 W/m 12,9 km/h (3 Bft) 95,92 %
05.09.2019 18:16 16,5 C 15,6 C 15,0 C 67 % 1023,4 hPa 0,0 l/m 0 min 0 min 56 W/m 12,9 km/h (3 Bft) 100,00 %
05.09.2019 18:18 16,4 C 15,6 C 15,0 C 67 % 1023,4 hPa 0,0 l/m 0 min 0 min 62 W/m 16,1 km/h (3 Bft) 97,87 %
05.09.2019 18:20 16,4 C 15,6 C 15,0 C 67 % 1023,5 hPa 0,0 l/m 0 min 0 min 69 W/m 16,1 km/h (3 Bft) 96,23 %
05.09.2019 18:22 16,3 C 15,6 C 15,0 C 68 % 1023,5 hPa 0,0 l/m 0 min 0 min 79 W/m 9,7 km/h (2 Bft) 98,00 %
05.09.2019 18:24 16,3 C 15,6 C 15,6 C 69 % 1023,4 hPa 0,0 l/m 0 min 0 min 87 W/m 6,4 km/h (2 Bft) 94,74 %
05.09.2019 18:26 16,3 C 15,6 C 15,6 C 69 % 1023,5 hPa 0,0 l/m 0 min 0 min 94 W/m 9,7 km/h (2 Bft) 97,87 %
05.09.2019 18:28 16,2 C 16,1 C 15,6 C 69 % 1023,5 hPa 0,0 l/m 0 min 0 min 100 W/m 9,7 km/h (2 Bft) 98,08 %
05.09.2019 18:30 16,2 C 16,1 C 15,6 C 69 % 1023,5 hPa 0,0 l/m 0 min 0 min 104 W/m 9,7 km/h (2 Bft) 98,00 %
05.09.2019 18:32 16,2 C 16,1 C 15,6 C 70 % 1023,5 hPa 0,0 l/m 0 min 0 min 110 W/m 9,7 km/h (2 Bft) 97,87 %
05.09.2019 18:34 16,2 C 16,1 C 15,6 C 70 % 1023,5 hPa 0,0 l/m 0 min 0 min 110 W/m 9,7 km/h (2 Bft) 97,37 %
05.09.2019 18:36 16,2 C 16,1 C 15,6 C 71 % 1023,6 hPa 0,0 l/m 0 min 0 min 105 W/m 12,9 km/h (3 Bft) 97,87 %
05.09.2019 18:38 16,2 C 16,1 C 15,6 C 72 % 1023,6 hPa 0,0 l/m 0 min 0 min 104 W/m 9,7 km/h (2 Bft) 95,65 %
05.09.2019 18:40 16,2 C 16,1 C 15,6 C 72 % 1023,6 hPa 0,0 l/m 0 min 0 min 103 W/m 19,3 km/h (3 Bft) 96,23 %
05.09.2019 18:42 16,3 C 16,1 C 15,6 C 73 % 1023,8 hPa 0,0 l/m 0 min 0 min 89 W/m 12,9 km/h (3 Bft) 98,00 %
05.09.2019 18:44 16,3 C 16,1 C 15,6 C 73 % 1023,7 hPa 0,0 l/m 0 min 0 min 73 W/m 9,7 km/h (2 Bft) 97,87 %
05.09.2019 18:46 16,3 C 15,6 C 15,6 C 73 % 1023,8 hPa 0,0 l/m 0 min 0 min 58 W/m 9,7 km/h (2 Bft) 97,37 %
05.09.2019 18:48 16,3 C 15,6 C 15,0 C 73 % 1023,7 hPa 0,0 l/m 0 min 0 min 47 W/m 9,7 km/h (2 Bft) 97,87 %
05.09.2019 18:50 16,3 C 15,6 C 15,0 C 74 % 1023,8 hPa 0,0 l/m 0 min 0 min 39 W/m 9,7 km/h (2 Bft) 98,08 %
05.09.2019 18:52 16,2 C 15,6 C 15,0 C 74 % 1023,8 hPa 0,0 l/m 0 min 0 min 39 W/m 9,7 km/h (2 Bft) 96,00 %
05.09.2019 18:54 16,2 C 15,6 C 15,0 C 74 % 1023,9 hPa 0,0 l/m 0 min 0 min 45 W/m 9,7 km/h (2 Bft) 94,74 %
05.09.2019 18:56 16,2 C 15,6 C 15,0 C 74 % 1023,9 hPa 0,0 l/m 0 min 0 min 53 W/m 9,7 km/h (2 Bft) 95,74 %
05.09.2019 18:58 16,2 C 15,6 C 15,0 C 74 % 1023,9 hPa 0,0 l/m 0 min 0 min 58 W/m 12,9 km/h (3 Bft) 98,11 %
05.09.2019 19:00 16,1 C 15,6 C 15,0 C 74 % 1023,9 hPa 0,0 l/m 0 min 0 min 60 W/m 9,7 km/h (2 Bft) 96,00 %
05.09.2019 19:02 16,1 C 15,6 C 15,0 C 74 % 1023,8 hPa 0,0 l/m 0 min 0 min 58 W/m 9,7 km/h (2 Bft) 95,65 %
05.09.2019 19:04 16,1 C 15,6 C 15,0 C 73 % 1023,8 hPa 0,0 l/m 0 min 0 min 54 W/m 22,5 km/h (4 Bft) 97,37 %
05.09.2019 19:06 16,0 C 15,6 C 15,0 C 72 % 1023,9 hPa 0,0 l/m 0 min 0 min 50 W/m 16,1 km/h (3 Bft) 100,00 %
05.09.2019 19:08 16,0 C 15,0 C 15,0 C 72 % 1023,9 hPa 0,0 l/m 0 min 0 min 47 W/m 16,1 km/h (3 Bft) 96,23 %
05.09.2019 19:10 15,9 C 15,0 C 15,0 C 72 % 1024,0 hPa 0,0 l/m 0 min 0 min 47 W/m 12,9 km/h (3 Bft) 94,00 %
05.09.2019 19:12 15,9 C 15,0 C 15,0 C 72 % 1024,0 hPa 0,0 l/m 0 min 0 min 56 W/m 9,7 km/h (2 Bft) 94,74 %
05.09.2019 19:14 15,9 C 15,0 C 15,0 C 72 % 1023,9 hPa 0,0 l/m 0 min 0 min 65 W/m 9,7 km/h (2 Bft) 95,65 %
05.09.2019 19:16 15,8 C 15,6 C 15,0 C 72 % 1024,0 hPa 0,0 l/m 0 min 0 min 66 W/m 12,9 km/h (3 Bft) 94,34 %
05.09.2019 19:18 15,8 C 15,0 C 15,0 C 72 % 1024,0 hPa 0,0 l/m 0 min 0 min 62 W/m 16,1 km/h (3 Bft) 96,00 %
05.09.2019 19:20 15,8 C 15,0 C 15,0 C 72 % 1024,0 hPa 0,0 l/m 0 min 0 min 55 W/m 12,9 km/h (3 Bft) 93,62 %
05.09.2019 19:22 15,8 C 15,0 C 15,0 C 72 % 1024,1 hPa 0,0 l/m 0 min 0 min 50 W/m 9,7 km/h (2 Bft) 89,47 %
05.09.2019 19:24 15,8 C 15,0 C 15,0 C 72 % 1024,1 hPa 0,0 l/m 0 min 0 min 44 W/m 9,7 km/h (2 Bft) 95,74 %
05.09.2019 19:26 15,8 C 15,0 C 14,4 C 72 % 1024,1 hPa 0,0 l/m 0 min 0 min 40 W/m 9,7 km/h (2 Bft) 94,23 %
05.09.2019 19:28 15,7 C 15,0 C 14,4 C 72 % 1024,2 hPa 0,0 l/m 0 min 0 min 35 W/m 6,4 km/h (2 Bft) 96,00 %
05.09.2019 19:30 15,7 C 14,4 C 14,4 C 73 % 1024,2 hPa 0,0 l/m 0 min 0 min 33 W/m 9,7 km/h (2 Bft) 94,74 %
05.09.2019 19:32 15,7 C 14,4 C 14,4 C 72 % 1024,2 hPa 0,0 l/m 0 min 0 min 31 W/m 12,9 km/h (3 Bft) 95,74 %
05.09.2019 19:34 15,6 C 14,4 C 14,4 C 72 % 1024,3 hPa 0,0 l/m 0 min 0 min 28 W/m 9,7 km/h (2 Bft) 96,23 %
05.09.2019 19:36 15,5 C 14,4 C 13,9 C 71 % 1024,2 hPa 0,0 l/m 0 min 0 min 26 W/m 12,9 km/h (3 Bft) 96,00 %
05.09.2019 19:38 15,4 C 14,4 C 13,9 C 71 % 1024,3 hPa 0,0 l/m 0 min 0 min 25 W/m 22,5 km/h (4 Bft) 93,48 %
05.09.2019 19:40 15,4 C 13,9 C 13,9 C 71 % 1024,3 hPa 0,0 l/m 0 min 0 min 21 W/m 12,9 km/h (3 Bft) 94,74 %
05.09.2019 19:42 15,3 C 13,9 C 13,9 C 71 % 1024,4 hPa 0,0 l/m 0 min 0 min 20 W/m 9,7 km/h (2 Bft) 95,74 %
05.09.2019 19:44 15,3 C 13,9 C 13,9 C 71 % 1024,5 hPa 0,0 l/m 0 min 0 min 18 W/m 6,4 km/h (2 Bft) 92,45 %
05.09.2019 19:46 15,2 C 13,9 C 13,9 C 72 % 1024,5 hPa 0,0 l/m 0 min 0 min 16 W/m 6,4 km/h (2 Bft) 96,00 %
05.09.2019 19:48 15,2 C 13,9 C 13,9 C 72 % 1024,5 hPa 0,0 l/m 0 min 0 min 15 W/m 16,1 km/h (3 Bft) 91,89 %
05.09.2019 19:50 15,1 C 13,9 C 13,3 C 72 % 1024,6 hPa 0,0 l/m 0 min 0 min 12 W/m 16,1 km/h (3 Bft) 95,74 %
05.09.2019 19:52 15,1 C 13,9 C 13,3 C 72 % 1024,6 hPa 0,0 l/m 0 min 0 min 12 W/m 12,9 km/h (3 Bft) 96,23 %
05.09.2019 19:54 15,0 C 13,3 C 13,3 C 72 % 1024,6 hPa 0,0 l/m 0 min 0 min 11 W/m 9,7 km/h (2 Bft) 96,00 %
05.09.2019 19:56 14,9 C 13,3 C 13,3 C 72 % 1024,6 hPa 0,0 l/m 0 min 0 min 10 W/m 12,9 km/h (3 Bft) 97,87 %
05.09.2019 19:58 14,9 C 13,3 C 13,3 C 72 % 1024,7 hPa 0,0 l/m 0 min 0 min 9 W/m 9,7 km/h (2 Bft) 100,00 %
05.09.2019 20:00 14,8 C 13,3 C 13,3 C 72 % 1024,7 hPa 0,0 l/m 0 min 0 min 8 W/m 9,7 km/h (2 Bft) 100,00 %
05.09.2019 20:02 14,8 C 13,3 C 13,3 C 73 % 1024,7 hPa 0,0 l/m 0 min 0 min 7 W/m 9,7 km/h (2 Bft) 100,00 %
05.09.2019 20:04 14,8 C 12,8 C 13,3 C 73 % 1024,7 hPa 0,0 l/m 0 min 0 min 7 W/m 9,7 km/h (2 Bft) 97,87 %
05.09.2019 20:06 14,7 C 12,8 C 13,3 C 73 % 1024,8 hPa 0,0 l/m 0 min 0 min 6 W/m 9,7 km/h (2 Bft) 97,87 %
05.09.2019 20:08 14,7 C 13,3 C 13,3 C 73 % 1024,8 hPa 0,0 l/m 0 min 0 min 5 W/m 12,9 km/h (3 Bft) 100,00 %
05.09.2019 20:10 14,6 C 12,8 C 13,3 C 73 % 1024,8 hPa 0,0 l/m 0 min 0 min 5 W/m 9,7 km/h (2 Bft) 100,00 %
05.09.2019 20:12 14,6 C 12,8 C 13,3 C 74 % 1024,8 hPa 0,0 l/m 0 min 0 min 0 W/m 6,4 km/h (2 Bft) 100,00 %
05.09.2019 20:14 14,5 C 12,8 C 12,8 C 74 % 1024,8 hPa 0,0 l/m 0 min 0 min 0 W/m 3,2 km/h (1 Bft) 100,00 %
05.09.2019 20:16 14,5 C 12,8 C 12,8 C 74 % 1024,9 hPa 0,0 l/m 0 min 0 min 0 W/m 6,4 km/h (2 Bft) 97,87 %
05.09.2019 20:18 14,4 C 12,8 C 12,8 C 74 % 1024,8 hPa 0,0 l/m 0 min 0 min 0 W/m 6,4 km/h (2 Bft) 100,00 %
05.09.2019 20:20 14,4 C 12,8 C 12,8 C 75 % 1024,9 hPa 0,0 l/m 0 min 0 min 0 W/m 9,7 km/h (2 Bft) 100,00 %
05.09.2019 20:22 14,3 C 12,8 C 12,8 C 75 % 1025,0 hPa 0,0 l/m 0 min 0 min 0 W/m 9,7 km/h (2 Bft) 100,00 %
05.09.2019 20:24 14,3 C 12,8 C 12,8 C 75 % 1025,0 hPa 0,0 l/m 0 min 0 min 0 W/m 6,4 km/h (2 Bft) 100,00 %
05.09.2019 20:26 14,2 C 12,2 C 12,8 C 75 % 1025,0 hPa 0,0 l/m 0 min 0 min 0 W/m 6,4 km/h (2 Bft) 100,00 %
05.09.2019 20:28 14,2 C 12,2 C 12,8 C 76 % 1025,1 hPa 0,0 l/m 0 min 0 min 0 W/m 3,2 km/h (1 Bft) 100,00 %
05.09.2019 20:30 14,2 C 12,2 C 12,2 C 76 % 1025,1 hPa 0,0 l/m 0 min 0 min 0 W/m 3,2 km/h (1 Bft) 100,00 %
05.09.2019 20:34 14,2 C 12,2 C 12,2 C 76 % 1025,1 hPa 0,0 l/m 0 min 0 min 0 W/m 3,2 km/h (1 Bft) 100,00 %
05.09.2019 20:36 14,2 C 12,2 C 12,2 C 76 % 1025,2 hPa 0,0 l/m 0 min 0 min 0 W/m 0,0 km/h (0 Bft) 97,87 %
05.09.2019 20:38 14,1 C 11,7 C 11,7 C 76 % 1025,2 hPa 0,0 l/m 0 min 0 min 0 W/m 3,2 km/h (1 Bft) 97,87 %
05.09.2019 20:40 14,1 C 11,7 C 11,7 C 76 % 1025,2 hPa 0,0 l/m 0 min 0 min 0 W/m 3,2 km/h (1 Bft) 100,00 %
05.09.2019 20:42 14,0 C 11,7 C 11,7 C 76 % 1025,3 hPa 0,0 l/m 0 min 0 min 0 W/m 0,0 km/h (0 Bft) 98,00 %
05.09.2019 20:44 14,0 C 11,7 C 11,7 C 76 % 1025,3 hPa 0,0 l/m 0 min 0 min 0 W/m 3,2 km/h (1 Bft) 100,00 %
05.09.2019 20:46 13,9 C 11,7 C 11,7 C 76 % 1025,3 hPa 0,0 l/m 0 min 0 min 0 W/m 0,0 km/h (0 Bft) 97,87 %
05.09.2019 20:48 13,9 C 11,7 C 11,7 C 76 % 1025,2 hPa 0,0 l/m 0 min 0 min 0 W/m 0,0 km/h (0 Bft) 100,00 %
05.09.2019 20:50 13,9 C 11,7 C 11,7 C 77 % 1025,3 hPa 0,0 l/m 0 min 0 min 0 W/m 0,0 km/h (0 Bft) 97,87 %
05.09.2019 20:52 13,8 C 11,7 C 11,7 C 77 % 1025,3 hPa 0,0 l/m 0 min 0 min 0 W/m 0,0 km/h (0 Bft) 100,00 %
05.09.2019 20:54 13,8 C 11,7 C 11,7 C 77 % 1025,3 hPa 0,0 l/m 0 min 0 min 0 W/m 3,2 km/h (1 Bft) 100,00 %
05.09.2019 20:56 13,7 C 11,7 C 11,7 C 77 % 1025,4 hPa 0,0 l/m 0 min 0 min 0 W/m 3,2 km/h (1 Bft) 100,00 %
05.09.2019 20:58 13,7 C 11,7 C 11,1 C 77 % 1025,4 hPa 0,0 l/m 0 min 0 min 0 W/m 3,2 km/h (1 Bft) 100,00 %
05.09.2019 21:00 13,6 C 11,7 C 11,1 C 77 % 1025,4 hPa 0,0 l/m 0 min 0 min 0 W/m 0,0 km/h (0 Bft) 95,74 %
05.09.2019 21:02 13,6 C 11,1 C 11,1 C 77 % 1025,4 hPa 0,0 l/m 0 min 0 min 0 W/m 0,0 km/h (0 Bft) 100,00 %
05.09.2019 21:04 13,5 C 11,7 C 11,1 C 77 % 1025,4 hPa 0,0 l/m 0 min 0 min 0 W/m 0,0 km/h (0 Bft) 97,87 %
05.09.2019 21:06 13,5 C 11,1 C 11,1 C 78 % 1025,4 hPa 0,0 l/m 0 min 0 min 0 W/m 0,0 km/h (0 Bft) 100,00 %
05.09.2019 21:08 13,4 C 11,1 C 11,1 C 78 % 1025,4 hPa 0,0 l/m 0 min 0 min 0 W/m 0,0 km/h (0 Bft) 100,00 %
05.09.2019 21:10 13,4 C 11,1 C 11,1 C 78 % 1025,4 hPa 0,0 l/m 0 min 0 min 0 W/m 3,2 km/h (1 Bft) 100,00 %
05.09.2019 21:12 13,4 C 11,1 C 11,1 C 78 % 1025,5 hPa 0,0 l/m 0 min 0 min 0 W/m 0,0 km/h (0 Bft) 100,00 %
05.09.2019 21:14 13,3 C 11,1 C 11,1 C 78 % 1025,5 hPa 0,0 l/m 0 min 0 min 0 W/m 0,0 km/h (0 Bft) 100,00 %
05.09.2019 21:16 13,3 C 11,1 C 11,1 C 78 % 1025,4 hPa 0,0 l/m 0 min 0 min 0 W/m 0,0 km/h (0 Bft) 97,87 %
05.09.2019 21:18 13,2 C 11,1 C 11,1 C 78 % 1025,5 hPa 0,0 l/m 0 min 0 min 0 W/m 0,0 km/h (0 Bft) 100,00 %
05.09.2019 21:20 13,2 C 11,1 C 11,1 C 78 % 1025,5 hPa 0,0 l/m 0 min 0 min 0 W/m 0,0 km/h (0 Bft) 100,00 %
05.09.2019 21:22 13,2 C 11,7 C 11,1 C 78 % 1025,5 hPa 0,0 l/m 0 min 0 min 0 W/m 0,0 km/h (0 Bft) 100,00 %
05.09.2019 21:24 13,1 C 11,7 C 11,1 C 78 % 1025,5 hPa 0,0 l/m 0 min 0 min 0 W/m 0,0 km/h (0 Bft) 100,00 %
05.09.2019 21:26 13,1 C 11,7 C 11,7 C 78 % 1025,5 hPa 0,0 l/m 0 min 0 min 0 W/m 3,2 km/h (1 Bft) 100,00 %
05.09.2019 21:28 13,1 C 11,7 C 11,7 C 78 % 1025,5 hPa 0,0 l/m 0 min 0 min 0 W/m 3,2 km/h (1 Bft) 100,00 %
05.09.2019 21:30 13,0 C 11,7 C 11,7 C 78 % 1025,6 hPa 0,0 l/m 0 min 0 min 0 W/m 3,2 km/h (1 Bft) 95,74 %
05.09.2019 21:32 12,9 C 11,7 C 11,7 C 78 % 1025,6 hPa 0,0 l/m 0 min 0 min 0 W/m 3,2 km/h (1 Bft) 100,00 %
05.09.2019 21:34 12,9 C 11,7 C 11,7 C 78 % 1025,6 hPa 0,0 l/m 0 min 0 min 0 W/m 0,0 km/h (0 Bft) 100,00 %
05.09.2019 21:36 12,9 C 11,7 C 11,7 C 78 % 1025,5 hPa 0,0 l/m 0 min 0 min 0 W/m 0,0 km/h (0 Bft) 97,87 %
05.09.2019 21:38 12,9 C 11,1 C 11,1 C 78 % 1025,6 hPa 0,0 l/m 0 min 0 min 0 W/m 0,0 km/h (0 Bft) 97,87 %
05.09.2019 21:40 12,8 C 11,1 C 11,1 C 78 % 1025,5 hPa 0,0 l/m 0 min 0 min 0 W/m 0,0 km/h (0 Bft) 97,87 %
05.09.2019 21:42 12,8 C 11,1 C 11,1 C 79 % 1025,6 hPa 0,0 l/m 0 min 0 min 0 W/m 0,0 km/h (0 Bft) 97,87 %
05.09.2019 21:44 12,8 C 11,1 C 11,1 C 79 % 1025,6 hPa 0,0 l/m 0 min 0 min 0 W/m 0,0 km/h (0 Bft) 97,87 %
05.09.2019 21:46 12,8 C 11,1 C 11,1 C 79 % 1025,6 hPa 0,0 l/m 0 min 0 min 0 W/m 0,0 km/h (0 Bft) 97,83 %
05.09.2019 21:48 12,7 C 11,1 C 11,1 C 79 % 1025,6 hPa 0,0 l/m 0 min 0 min 0 W/m 0,0 km/h (0 Bft) 97,87 %
05.09.2019 21:50 12,7 C 11,1 C 11,1 C 79 % 1025,6 hPa 0,0 l/m 0 min 0 min 0 W/m 0,0 km/h (0 Bft) 97,87 %
05.09.2019 21:52 12,7 C 11,1 C 11,1 C 79 % 1025,7 hPa 0,0 l/m 0 min 0 min 0 W/m 0,0 km/h (0 Bft) 97,87 %
05.09.2019 21:54 12,7 C 11,1 C 11,1 C 79 % 1025,7 hPa 0,0 l/m 0 min 0 min 0 W/m 3,2 km/h (1 Bft) 97,87 %
05.09.2019 21:56 12,6 C 11,7 C 11,1 C 79 % 1025,7 hPa 0,0 l/m 0 min 0 min 0 W/m 0,0 km/h (0 Bft) 98,11 %
05.09.2019 21:58 12,6 C 11,7 C 11,7 C 80 % 1025,8 hPa 0,0 l/m 0 min 0 min 0 W/m 3,2 km/h (1 Bft) 95,74 %
05.09.2019 22:00 12,6 C 11,7 C 11,7 C 80 % 1025,8 hPa 0,0 l/m 0 min 0 min 0 W/m 0,0 km/h (0 Bft) 97,87 %
05.09.2019 22:02 12,6 C 11,7 C 11,7 C 80 % 1025,8 hPa 0,0 l/m 0 min 0 min 0 W/m 3,2 km/h (1 Bft) 95,65 %
05.09.2019 22:04 12,6 C 11,7 C 11,7 C 80 % 1025,8 hPa 0,0 l/m 0 min 0 min 0 W/m 0,0 km/h (0 Bft) 97,87 %
05.09.2019 22:06 12,6 C 11,7 C 11,7 C 80 % 1025,8 hPa 0,0 l/m 0 min 0 min 0 W/m 3,2 km/h (1 Bft) 98,00 %
05.09.2019 22:08 12,5 C 11,7 C 11,7 C 81 % 1025,8 hPa 0,0 l/m 0 min 0 min 0 W/m 3,2 km/h (1 Bft) 95,74 %
05.09.2019 22:10 12,5 C 11,7 C 11,7 C 81 % 1025,9 hPa 0,0 l/m 0 min 0 min 0 W/m 0,0 km/h (0 Bft) 94,59 %
05.09.2019 22:12 12,5 C 11,7 C 11,7 C 81 % 1025,8 hPa 0,0 l/m 0 min 0 min 0 W/m 0,0 km/h (0 Bft) 95,74 %
05.09.2019 22:14 12,5 C 11,7 C 11,7 C 81 % 1025,8 hPa 0,0 l/m 0 min 0 min 0 W/m 0,0 km/h (0 Bft) 93,62 %
05.09.2019 22:16 12,5 C 11,7 C 11,7 C 81 % 1025,8 hPa 0,0 l/m 0 min 0 min 0 W/m 0,0 km/h (0 Bft) 93,62 %
05.09.2019 22:18 12,5 C 11,7 C 11,7 C 81 % 1025,9 hPa 0,0 l/m 0 min 0 min 0 W/m 0,0 km/h (0 Bft) 93,62 %
05.09.2019 22:20 12,5 C 11,7 C 11,7 C 81 % 1025,9 hPa 0,0 l/m 0 min 0 min 0 W/m 3,2 km/h (1 Bft) 93,48 %
05.09.2019 22:22 12,5 C 11,7 C 11,7 C 81 % 1025,8 hPa 0,0 l/m 0 min 0 min 0 W/m 0,0 km/h (0 Bft) 91,49 %
05.09.2019 22:24 12,5 C 11,7 C 11,7 C 82 % 1025,8 hPa 0,0 l/m 0 min 0 min 0 W/m 3,2 km/h (1 Bft) 96,30 %
05.09.2019 22:26 12,5 C 12,2 C 11,7 C 82 % 1025,8 hPa 0,0 l/m 0 min 0 min 0 W/m 3,2 km/h (1 Bft) 95,65 %
05.09.2019 22:28 12,5 C 12,2 C 11,7 C 82 % 1025,8 hPa 0,0 l/m 0 min 0 min 0 W/m 0,0 km/h (0 Bft) 95,74 %
05.09.2019 22:30 12,5 C 11,7 C 11,7 C 82 % 1025,8 hPa 0,0 l/m 0 min 0 min 0 W/m 0,0 km/h (0 Bft) 95,74 %
05.09.2019 22:32 12,5 C 11,7 C 11,7 C 82 % 1025,8 hPa 0,0 l/m 0 min 0 min 0 W/m 0,0 km/h (0 Bft) 93,62 %
05.09.2019 22:34 12,5 C 12,2 C 11,7 C 82 % 1025,9 hPa 0,0 l/m 0 min 0 min 0 W/m 3,2 km/h (1 Bft) 96,00 %
05.09.2019 22:36 12,5 C 12,2 C 11,7 C 82 % 1026,0 hPa 0,0 l/m 0 min 0 min 0 W/m 3,2 km/h (1 Bft) 97,30 %
05.09.2019 22:38 12,5 C 11,7 C 11,7 C 82 % 1026,0 hPa 0,0 l/m 0 min 0 min 0 W/m 3,2 km/h (1 Bft) 91,49 %
05.09.2019 22:40 12,6 C 11,7 C 12,2 C 83 % 1026,0 hPa 0,0 l/m 0 min 0 min 0 W/m 3,2 km/h (1 Bft) 93,62 %
05.09.2019 22:42 12,6 C 11,7 C 11,7 C 83 % 1026,0 hPa 0,0 l/m 0 min 0 min 0 W/m 3,2 km/h (1 Bft) 93,62 %
05.09.2019 22:44 12,6 C 11,7 C 11,7 C 83 % 1026,0 hPa 0,0 l/m 0 min 0 min 0 W/m 3,2 km/h (1 Bft) 96,23 %
05.09.2019 22:46 12,6 C 11,7 C 11,7 C 83 % 1025,9 hPa 0,0 l/m 0 min 0 min 0 W/m 6,4 km/h (2 Bft) 95,74 %
05.09.2019 22:48 12,6 C 11,7 C 11,7 C 83 % 1026,0 hPa 0,0 l/m 0 min 0 min 0 W/m 9,7 km/h (2 Bft) 95,65 %
05.09.2019 22:50 12,6 C 11,7 C 11,7 C 83 % 1026,0 hPa 0,0 l/m 0 min 0 min 0 W/m 3,2 km/h (1 Bft) 93,62 %
05.09.2019 22:52 12,6 C 11,7 C 11,7 C 84 % 1025,9 hPa 0,0 l/m 0 min 0 min 0 W/m 6,4 km/h (2 Bft) 95,74 %
05.09.2019 22:54 12,6 C 11,1 C 11,7 C 84 % 1026,0 hPa 0,0 l/m 0 min 0 min 0 W/m 3,2 km/h (1 Bft) 93,62 %
05.09.2019 22:56 12,6 C 11,1 C 11,1 C 84 % 1026,0 hPa 0,0 l/m 0 min 0 min 0 W/m 9,7 km/h (2 Bft) 93,62 %
05.09.2019 22:58 12,6 C 11,1 C 11,1 C 84 % 1026,0 hPa 0,0 l/m 0 min 0 min 0 W/m 0,0 km/h (0 Bft) 96,00 %
05.09.2019 23:00 12,6 C 11,1 C 11,1 C 84 % 1026,0 hPa 0,0 l/m 0 min 0 min 0 W/m 3,2 km/h (1 Bft) 94,59 %
05.09.2019 23:02 12,6 C 11,1 C 11,1 C 84 % 1026,0 hPa 0,0 l/m 0 min 0 min 0 W/m 3,2 km/h (1 Bft) 95,74 %
05.09.2019 23:04 12,5 C 11,1 C 11,1 C 84 % 1026,0 hPa 0,0 l/m 0 min 0 min 0 W/m 0,0 km/h (0 Bft) 96,23 %
05.09.2019 23:06 12,5 C 11,1 C 11,1 C 84 % 1026,0 hPa 0,0 l/m 0 min 0 min 0 W/m 0,0 km/h (0 Bft) 95,74 %
05.09.2019 23:08 12,5 C 11,1 C 11,1 C 84 % 1026,0 hPa 0,0 l/m 0 min 0 min 0 W/m 6,4 km/h (2 Bft) 98,00 %
05.09.2019 23:10 12,5 C 10,6 C 10,6 C 84 % 1026,0 hPa 0,0 l/m 0 min 0 min 0 W/m 3,2 km/h (1 Bft) 97,87 %
05.09.2019 23:12 12,4 C 10,6 C 10,6 C 84 % 1026,1 hPa 0,0 l/m 0 min 0 min 0 W/m 6,4 km/h (2 Bft) 97,83 %
05.09.2019 23:14 12,4 C 10,6 C 10,6 C 84 % 1026,0 hPa 0,0 l/m 0 min 0 min 0 W/m 0,0 km/h (0 Bft) 95,74 %
05.09.2019 23:16 12,4 C 10,6 C 10,6 C 84 % 1026,1 hPa 0,0 l/m 0 min 0 min 0 W/m 0,0 km/h (0 Bft) 97,87 %
05.09.2019 23:18 12,4 C 10,6 C 10,6 C 84 % 1026,2 hPa 0,0 l/m 0 min 0 min 0 W/m 0,0 km/h (0 Bft) 95,74 %
05.09.2019 23:20 12,3 C 10,0 C 10,6 C 84 % 1026,2 hPa 0,0 l/m 0 min 0 min 0 W/m 0,0 km/h (0 Bft) 100,00 %
05.09.2019 23:22 12,3 C 10,0 C 10,0 C 84 % 1026,2 hPa 0,0 l/m 0 min 0 min 0 W/m 0,0 km/h (0 Bft) 97,87 %
05.09.2019 23:24 12,3 C 10,0 C 10,0 C 84 % 1026,2 hPa 0,0 l/m 0 min 0 min 0 W/m 0,0 km/h (0 Bft) 96,23 %
05.09.2019 23:26 12,3 C 10,0 C 10,0 C 84 % 1026,2 hPa 0,0 l/m 0 min 0 min 0 W/m 0,0 km/h (0 Bft) 100,00 %
05.09.2019 23:28 12,2 C 10,0 C 10,0 C 84 % 1026,2 hPa 0,0 l/m 0 min 0 min 0 W/m 0,0 km/h (0 Bft) 100,00 %
05.09.2019 23:30 12,2 C 10,0 C 10,0 C 84 % 1026,2 hPa 0,0 l/m 0 min 0 min 0 W/m 0,0 km/h (0 Bft) 100,00 %
05.09.2019 23:32 12,2 C 10,0 C 10,0 C 84 % 1026,2 hPa 0,0 l/m 0 min 0 min 0 W/m 0,0 km/h (0 Bft) 97,87 %
05.09.2019 23:34 12,1 C 10,0 C 10,0 C 84 % 1026,2 hPa 0,0 l/m 0 min 0 min 0 W/m 0,0 km/h (0 Bft) 97,87 %
05.09.2019 23:36 12,1 C 10,0 C 9,4 C 84 % 1026,2 hPa 0,0 l/m 0 min 0 min 0 W/m 0,0 km/h (0 Bft) 100,00 %
05.09.2019 23:38 12,1 C 10,0 C 9,4 C 84 % 1026,2 hPa 0,0 l/m 0 min 0 min 0 W/m 0,0 km/h (0 Bft) 100,00 %
05.09.2019 23:40 12,0 C 10,0 C 9,4 C 84 % 1026,2 hPa 0,0 l/m 0 min 0 min 0 W/m 3,2 km/h (1 Bft) 100,00 %
05.09.2019 23:42 12,0 C 10,0 C 9,4 C 84 % 1026,2 hPa 0,0 l/m 0 min 0 min 0 W/m 0,0 km/h (0 Bft) 100,00 %
05.09.2019 23:44 11,9 C 9,4 C 9,4 C 84 % 1026,2 hPa 0,0 l/m 0 min 0 min 0 W/m 0,0 km/h (0 Bft) 97,87 %
05.09.2019 23:46 11,9 C 9,4 C 9,4 C 84 % 1026,2 hPa 0,0 l/m 0 min 0 min 0 W/m 0,0 km/h (0 Bft) 97,87 %
05.09.2019 23:48 11,9 C 9,4 C 9,4 C 84 % 1026,2 hPa 0,0 l/m 0 min 0 min 0 W/m 0,0 km/h (0 Bft) 97,83 %
05.09.2019 23:50 11,8 C 9,4 C 9,4 C 84 % 1026,2 hPa 0,0 l/m 0 min 0 min 0 W/m 0,0 km/h (0 Bft) 100,00 %
05.09.2019 23:52 11,8 C 9,4 C 9,4 C 84 % 1026,2 hPa 0,0 l/m 0 min 0 min 0 W/m 0,0 km/h (0 Bft) 97,87 %
05.09.2019 23:54 11,7 C 9,4 C 9,4 C 84 % 1026,3 hPa 0,0 l/m 0 min 0 min 0 W/m 0,0 km/h (0 Bft) 95,74 %
05.09.2019 23:56 11,7 C 9,4 C 8,9 C 84 % 1026,3 hPa 0,0 l/m 0 min 0 min 0 W/m 0,0 km/h (0 Bft) 95,74 %
05.09.2019 23:58 11,7 C 9,4 C 9,4 C 85 % 1026,3 hPa 0,0 l/m 0 min 0 min 0 W/m 0,0 km/h (0 Bft) 97,87 %
_ Min-Zeit 23:54 23:44 23:56 17:10 02:38 - - - - 00:00 19:22
Minimum _ 11,7 C 9,4 C 8,9 C 60 % 1015,0 hPa - - - - 0,0 km/h (0 Bft) 89,47 %
_ Max-Zeit 12:16 12:08 16:44 00:44 23:54 00:00 12:08 12:30 13:24 05:26 00:00
Maximum _ 19,9 C 26,7 C 23,3 C 96 % 1026,3 hPa 0,0 l/m 4 min 2 min 988 W/m 32,2 km/h
W (5 Bft)
100,00 %
Durchschnitt _ 14,9 C 15,2 C 14,1 C 82 % 1019,9 hPa #0,0 l/m #4:54 h #24 min. 274 W/m 9,1 km/h (2 Bft) 97,46 %
© 2019 W. Hausmann